Observation data for Stamford on 06/15/2019      Previous  Date  Next       Current Mesonet Observations  Soil Data  Daily Summary Page  Observations in Plain Language
KST2 150500Z 18013KT 27/18 A2981 RMK A01 T02740176  RH  055%=      5-min Rain = 0
KST2 150501Z 18015KT 27/18 A2981 RMK A01 T02730175  RH  055%=      5-min Rain = 0
KST2 150502Z 18014KT 27/18 A2981 RMK A01 T02740176  RH  055%=      5-min Rain = 0
KST2 150503Z 18015KT 27/18 A2981 RMK A01 T02730175  RH  055%=      5-min Rain = 0
KST2 150504Z 18014KT 27/18 A2981 RMK A01 T02730175  RH  055%=      5-min Rain = 0
KST2 150505Z 18014KT 27/18 A2981 RMK A01 T02730176  RH  055%=      5-min Rain = 0
KST2 150506Z 18015KT 27/18 A298 RMK A01 T02730175  RH  055%=      5-min Rain = 0
KST2 150507Z 18015KT 27/18 A298 RMK A01 T02730176  RH  055%=      5-min Rain = 0
KST2 150508Z 18016KT 27/18 A298 RMK A01 T02730175  RH  055%=      5-min Rain = 0
KST2 150509Z 18015KT 27/18 A298 RMK A01 T02730176  RH  055%=      5-min Rain = 0
KST2 150510Z 18016KT 27/18 A298 RMK A01 T02730175  RH  055%=      5-min Rain = 0
KST2 150511Z 18014G19KT 27/18 A298 RMK A01 T02730175  RH  055%=      5-min Rain = 0
KST2 150512Z 18015KT 27/18 A298 RMK A01 T02730175  RH  055%=      5-min Rain = 0
KST2 150513Z 18016KT 27/18 A298 RMK A01 T02730175  RH  055%=      5-min Rain = 0
KST2 150514Z 18015G20KT 27/18 A298 RMK A01 T02730176  RH  055%=      5-min Rain = 0
KST2 150515Z 18015KT 27/18 A298 RMK A01 T02730176  RH  055%=      5-min Rain = 0
KST2 150516Z 19015KT 27/18 A298 RMK A01 T02730176  RH  055%=      5-min Rain = 0
KST2 150517Z 18016KT 27/18 A298 RMK A01 T02730176  RH  055%=      5-min Rain = 0
KST2 150518Z 19015KT 27/18 A298 RMK A01 T02730176  RH  055%=      5-min Rain = 0
KST2 150519Z 19015KT 27/18 A298 RMK A01 T02730176  RH  056%=      5-min Rain = 0
KST2 150520Z 18015KT 27/18 A298 RMK A01 T02720176  RH  056%=      5-min Rain = 0
KST2 150521Z 18013KT 27/18 A298 RMK A01 T02720176  RH  056%=      5-min Rain = 0
KST2 150522Z 19013KT 27/18 A298 RMK A01 T02720176  RH  056%=      5-min Rain = 0
KST2 150523Z 18014KT 27/18 A298 RMK A01 T02720176  RH  056%=      5-min Rain = 0
KST2 150524Z 18014KT 27/18 A298 RMK A01 T02710176  RH  056%=      5-min Rain = 0
KST2 150525Z 18015KT 27/18 A298 RMK A01 T02710176  RH  056%=      5-min Rain = 0
KST2 150526Z 18015KT 27/18 A298 RMK A01 T02710176  RH  056%=      5-min Rain = 0
KST2 150527Z 18014KT 27/18 A298 RMK A01 T02710176  RH  056%=      5-min Rain = 0
KST2 150528Z 18015KT 27/18 A298 RMK A01 T02710176  RH  056%=      5-min Rain = 0
KST2 150529Z 18016KT 27/18 A298 RMK A01 T02710176  RH  056%=      5-min Rain = 0
KST2 150530Z 18014KT 27/18 A298 RMK A01 T02710177  RH  056%=      5-min Rain = 0
KST2 150531Z 18013KT 27/18 A298 RMK A01 T02710176  RH  056%=      5-min Rain = 0
KST2 150532Z 19013KT 27/18 A298 RMK A01 T02710177  RH  056%=      5-min Rain = 0
KST2 150533Z 19013KT 27/18 A298 RMK A01 T02710177  RH  056%=      5-min Rain = 0
KST2 150534Z 19014KT 27/18 A2981 RMK A01 T02700177  RH  057%=      5-min Rain = 0
KST2 150535Z 19013KT 27/18 A2981 RMK A01 T02700177  RH  057%=      5-min Rain = 0
KST2 150536Z 19013KT 27/18 A2981 RMK A01 T02700177  RH  057%=      5-min Rain = 0
KST2 150537Z 19013KT 27/18 A2981 RMK A01 T02700176  RH  057%=      5-min Rain = 0
KST2 150538Z 19013KT 27/18 A2981 RMK A01 T02700177  RH  057%=      5-min Rain = 0
KST2 150539Z 19015KT 27/18 A2981 RMK A01 T02690176  RH  057%=      5-min Rain = 0
KST2 150540Z 19014KT 27/18 A2981 RMK A01 T02690177  RH  057%=      5-min Rain = 0
KST2 150541Z 19013KT 27/18 A2981 RMK A01 T02690177  RH  057%=      5-min Rain = 0
KST2 150542Z 19014KT 27/18 A2981 RMK A01 T02690177  RH  057%=      5-min Rain = 0
KST2 150543Z 19014KT 27/18 A2981 RMK A01 T02700177  RH  057%=      5-min Rain = 0
KST2 150544Z 19013KT 27/18 A2981 RMK A01 T02700177  RH  057%=      5-min Rain = 0
KST2 150545Z 19015KT 27/18 A2981 RMK A01 T02700177  RH  057%=      5-min Rain = 0
KST2 150546Z 19015KT 27/18 A2981 RMK A01 T02700177  RH  057%=      5-min Rain = 0
KST2 150547Z 19016KT 27/18 A2981 RMK A01 T02700177  RH  057%=      5-min Rain = 0
KST2 150548Z 19016KT 27/18 A2981 RMK A01 T02700178  RH  057%=      5-min Rain = 0
KST2 150549Z 19015KT 27/18 A2981 RMK A01 T02700178  RH  057%=      5-min Rain = 0
KST2 150550Z 19016G22KT 27/18 A2981 RMK A01 T02710178  RH  057%=      5-min Rain = 0
KST2 150551Z 19015KT 27/18 A2981 RMK A01 T02710178  RH  057%=      5-min Rain = 0
KST2 150552Z 19017KT 27/18 A2981 RMK A01 T02710178  RH  057%=      5-min Rain = 0
KST2 150553Z 19016KT 27/18 A2981 RMK A01 T02710178  RH  057%=      5-min Rain = 0
KST2 150554Z 19017KT 27/18 A2981 RMK A01 T02710178  RH  057%=      5-min Rain = 0
KST2 150555Z 19017KT 27/18 A2981 RMK A01 T02710178  RH  057%=      5-min Rain = 0
KST2 150556Z 19018KT 27/18 A2981 RMK A01 T02710178  RH  057%=      5-min Rain = 0
KST2 150557Z 19015KT 27/18 A2981 RMK A01 T02710178  RH  057%=      5-min Rain = 0
KST2 150558Z 19016KT 27/18 A2981 RMK A01 T02710178  RH  057%=      5-min Rain = 0
KST2 150559Z 19015KT 27/18 A2981 RMK A01 T02710178  RH  057%=      5-min Rain = 0
KST2 150600Z 19018KT 27/18 A298 RMK A01 T02710178  RH  057%=      5-min Rain = 0
KST2 150601Z 19018KT 27/18 A2981 RMK A01 T02710178  RH  057%=      5-min Rain = 0
KST2 150602Z 19016KT 27/18 A2981 RMK A01 T02710178  RH  057%=      5-min Rain = 0
KST2 150603Z 19016KT 27/18 A298 RMK A01 T02710178  RH  057%=      5-min Rain = 0
KST2 150604Z 19016KT 27/18 A298 RMK A01 T02710179  RH  057%=      5-min Rain = 0
KST2 150605Z 19016KT 27/18 A298 RMK A01 T02710179  RH  057%=      5-min Rain = 0
KST2 150606Z 19019G24KT 27/18 A298 RMK A01 T02710179  RH  057%=      5-min Rain = 0
KST2 150607Z 19016KT 27/18 A298 RMK A01 T02710179  RH  057%=      5-min Rain = 0
KST2 150608Z 19017KT 27/18 A298 RMK A01 T02710179  RH  057%=      5-min Rain = 0
KST2 150609Z 19018KT 27/18 A298 RMK A01 T02710179  RH  057%=      5-min Rain = 0
KST2 150610Z 19017KT 27/18 A298 RMK A01 T02710179  RH  057%=      5-min Rain = 0
KST2 150611Z 19017KT 27/18 A298 RMK A01 T02710179  RH  057%=      5-min Rain = 0
KST2 150612Z 19016KT 27/18 A298 RMK A01 T02710179  RH  057%=      5-min Rain = 0
KST2 150613Z 19019KT 27/18 A298 RMK A01 T02710179  RH  057%=      5-min Rain = 0
KST2 150614Z 19017KT 27/18 A2981 RMK A01 T02710179  RH  057%=      5-min Rain = 0
KST2 150615Z 19018KT 27/18 A2981 RMK A01 T02710179  RH  057%=      5-min Rain = 0
KST2 150616Z 19017KT 27/18 A2981 RMK A01 T02710180  RH  057%=      5-min Rain = 0
KST2 150617Z 19015KT 27/18 A2981 RMK A01 T02710179  RH  057%=      5-min Rain = 0
KST2 150618Z 19016KT 27/18 A2981 RMK A01 T02700179  RH  057%=      5-min Rain = 0
KST2 150619Z 19018KT 27/18 A298 RMK A01 T02710179  RH  057%=      5-min Rain = 0
KST2 150620Z 19016KT 27/18 A298 RMK A01 T02710180  RH  057%=      5-min Rain = 0
KST2 150621Z 19018KT 27/18 A298 RMK A01 T02700179  RH  057%=      5-min Rain = 0
KST2 150622Z 19018KT 27/18 A298 RMK A01 T02700179  RH  057%=      5-min Rain = 0
KST2 150623Z 19019G24KT 27/18 A298 RMK A01 T02700179  RH  057%=      5-min Rain = 0
KST2 150624Z 20018KT 27/18 A298 RMK A01 T02700179  RH  057%=      5-min Rain = 0
KST2 150625Z 19018KT 27/18 A298 RMK A01 T02700179  RH  057%=      5-min Rain = 0
KST2 150626Z 19020KT 27/18 A298 RMK A01 T02700179  RH  057%=      5-min Rain = 0
KST2 150627Z 19018KT 27/18 A298 RMK A01 T02700179  RH  057%=      5-min Rain = 0
KST2 150628Z 19020KT 27/18 A298 RMK A01 T02700179  RH  057%=      5-min Rain = 0
KST2 150629Z 19018KT 27/18 A298 RMK A01 T02710180  RH  057%=      5-min Rain = 0
KST2 150630Z 19018KT 27/18 A298 RMK A01 T02710180  RH  057%=      5-min Rain = 0
KST2 150631Z 19017KT 27/18 A2981 RMK A01 T02710180  RH  057%=      5-min Rain = 0
KST2 150632Z 19018KT 27/18 A2981 RMK A01 T02700180  RH  058%=      5-min Rain = 0
KST2 150633Z 19020KT 27/18 A298 RMK A01 T02700180  RH  058%=      5-min Rain = 0
KST2 150634Z 20020KT 27/18 A298 RMK A01 T02700179  RH  058%=      5-min Rain = 0
KST2 150635Z 19019KT 27/18 A298 RMK A01 T02700179  RH  058%=      5-min Rain = 0
KST2 150636Z 19017KT 27/18 A2981 RMK A01 T02700179  RH  058%=      5-min Rain = 0
KST2 150637Z 19019KT 27/18 A298 RMK A01 T02700179  RH  058%=      5-min Rain = 0
KST2 150638Z 19019KT 27/18 A298 RMK A01 T02700179  RH  058%=      5-min Rain = 0
KST2 150639Z 19020G25KT 27/18 A298 RMK A01 T02700180  RH  058%=      5-min Rain = 0
KST2 150640Z 19018KT 27/18 A298 RMK A01 T02700179  RH  058%=      5-min Rain = 0
KST2 150641Z 19021KT 27/18 A298 RMK A01 T02700180  RH  058%=      5-min Rain = 0
KST2 150642Z 19021KT 27/18 A298 RMK A01 T02700180  RH  058%=      5-min Rain = 0
KST2 150643Z 19019KT 27/18 A298 RMK A01 T02700180  RH  058%=      5-min Rain = 0
KST2 150644Z 19020G25KT 27/18 A298 RMK A01 T02700180  RH  058%=      5-min Rain = 0
KST2 150645Z 19020G25KT 27/18 A298 RMK A01 T02700180  RH  058%=      5-min Rain = 0
KST2 150646Z 19019KT 27/18 A298 RMK A01 T02700180  RH  058%=      5-min Rain = 0
KST2 150647Z 19020KT 27/18 A298 RMK A01 T02700180  RH  058%=      5-min Rain = 0
KST2 150648Z 20020KT 27/18 A298 RMK A01 T02690180  RH  058%=      5-min Rain = 0
KST2 150649Z 19019G25KT 27/18 A298 RMK A01 T02690179  RH  058%=      5-min Rain = 0
KST2 150650Z 19021G26KT 27/18 A298 RMK A01 T02690180  RH  058%=      5-min Rain = 0
KST2 150651Z 19020KT 27/18 A298 RMK A01 T02690179  RH  058%=      5-min Rain = 0
KST2 150652Z 19020G25KT 27/18 A298 RMK A01 T02690180  RH  058%=      5-min Rain = 0
KST2 150653Z 19018KT 27/18 A298 RMK A01 T02690180  RH  058%=      5-min Rain = 0
KST2 150654Z 19020KT 27/18 A298 RMK A01 T02690180  RH  058%=      5-min Rain = 0
KST2 150655Z 19019KT 27/18 A298 RMK A01 T02680180  RH  058%=      5-min Rain = 0
KST2 150656Z 19019KT 27/18 A298 RMK A01 T02680180  RH  058%=      5-min Rain = 0
KST2 150657Z 19021KT 27/18 A298 RMK A01 T02680180  RH  058%=      5-min Rain = 0
KST2 150658Z 19018KT 27/18 A298 RMK A01 T02680180  RH  058%=      5-min Rain = 0
KST2 150659Z 19019G24KT 27/18 A298 RMK A01 T02680180  RH  058%=      5-min Rain = 0
KST2 150700Z 19020KT 27/18 A298 RMK A01 T02680180  RH  058%=      5-min Rain = 0
KST2 150701Z 19018KT 27/18 A298 RMK A01 T02680180  RH  059%=      5-min Rain = 0
KST2 150702Z 19018KT 27/18 A298 RMK A01 T02680180  RH  059%=      5-min Rain = 0
KST2 150703Z 19016KT 27/18 A298 RMK A01 T02670180  RH  059%=      5-min Rain = 0
KST2 150704Z 19016KT 27/18 A298 RMK A01 T02670180  RH  059%=      5-min Rain = 0
KST2 150705Z 19016KT 27/18 A298 RMK A01 T02660180  RH  059%=      5-min Rain = 0
KST2 150706Z 19017KT 27/18 A298 RMK A01 T02660180  RH  059%=      5-min Rain = 0
KST2 150707Z 18018KT 27/18 A298 RMK A01 T02650180  RH  059%=      5-min Rain = 0
KST2 150708Z 19016KT 27/18 A298 RMK A01 T02660180  RH  059%=      5-min Rain = 0
KST2 150709Z 19017KT 27/18 A298 RMK A01 T02660180  RH  059%=      5-min Rain = 0
KST2 150710Z 19018KT 27/18 A298 RMK A01 T02650180  RH  059%=      5-min Rain = 0
KST2 150711Z 19017KT 27/18 A298 RMK A01 T02650180  RH  060%=      5-min Rain = 0
KST2 150712Z 19017KT 27/18 A298 RMK A01 T02650180  RH  060%=      5-min Rain = 0
KST2 150713Z 19015KT 27/18 A298 RMK A01 T02650180  RH  060%=      5-min Rain = 0
KST2 150714Z 19018KT 27/18 A298 RMK A01 T02650181  RH  060%=      5-min Rain = 0
KST2 150715Z 19019KT 27/18 A298 RMK A01 T02650181  RH  060%=      5-min Rain = 0
KST2 150716Z 19017KT 26/18 A298 RMK A01 T02640180  RH  060%=      5-min Rain = 0
KST2 150717Z 19016KT 27/18 A298 RMK A01 T02650181  RH  060%=      5-min Rain = 0
KST2 150718Z 19017KT 26/18 A298 RMK A01 T02640181  RH  060%=      5-min Rain = 0
KST2 150719Z 19017G22KT 26/18 A298 RMK A01 T02640181  RH  060%=      5-min Rain = 0
KST2 150720Z 19016KT 26/18 A298 RMK A01 T02640181  RH  060%=      5-min Rain = 0
KST2 150721Z 19018KT 26/18 A298 RMK A01 T02640181  RH  060%=      5-min Rain = 0
KST2 150722Z 19017KT 26/18 A298 RMK A01 T02640181  RH  060%=      5-min Rain = 0
KST2 150723Z 19017G22KT 26/18 A298 RMK A01 T02630180  RH  060%=      5-min Rain = 0
KST2 150724Z 19017KT 26/18 A298 RMK A01 T02630181  RH  060%=      5-min Rain = 0
KST2 150725Z 19017KT 26/18 A298 RMK A01 T02630181  RH  061%=      5-min Rain = 0
KST2 150726Z 19015KT 26/18 A298 RMK A01 T02630181  RH  061%=      5-min Rain = 0
KST2 150727Z 19015KT 26/18 A298 RMK A01 T02630181  RH  061%=      5-min Rain = 0
KST2 150728Z 19017KT 26/18 A298 RMK A01 T02630181  RH  061%=      5-min Rain = 0
KST2 150729Z 19018KT 26/18 A298 RMK A01 T02620181  RH  061%=      5-min Rain = 0
KST2 150730Z 19018KT 26/18 A298 RMK A01 T02620181  RH  061%=      5-min Rain = 0
KST2 150731Z 19017KT 26/18 A298 RMK A01 T02630181  RH  061%=      5-min Rain = 0
KST2 150732Z 19016G22KT 26/18 A298 RMK A01 T02630182  RH  061%=      5-min Rain = 0
KST2 150733Z 19015KT 26/18 A298 RMK A01 T02630182  RH  061%=      5-min Rain = 0
KST2 150734Z 19016KT 26/18 A298 RMK A01 T02630182  RH  061%=      5-min Rain = 0
KST2 150735Z 19016KT 26/18 A298 RMK A01 T02620182  RH  061%=      5-min Rain = 0
KST2 150736Z 19017KT 26/18 A298 RMK A01 T02620182  RH  061%=      5-min Rain = 0
KST2 150737Z 19017KT 26/18 A298 RMK A01 T02620182  RH  061%=      5-min Rain = 0
KST2 150738Z 19017KT 26/18 A298 RMK A01 T02620182  RH  061%=      5-min Rain = 0
KST2 150739Z 19015KT 26/18 A2979 RMK A01 T02610182  RH  062%=      5-min Rain = 0
KST2 150740Z 18016G21KT 26/18 A2979 RMK A01 T02610182  RH  062%=      5-min Rain = 0
KST2 150741Z 19017KT 26/18 A2979 RMK A01 T02610182  RH  062%=      5-min Rain = 0
KST2 150742Z 19017KT 26/18 A2979 RMK A01 T02620182  RH  062%=      5-min Rain = 0
KST2 150743Z 18018KT 26/18 A2979 RMK A01 T02610182  RH  062%=      5-min Rain = 0
KST2 150744Z 19016KT 26/18 A2979 RMK A01 T02610182  RH  062%=      5-min Rain = 0
KST2 150745Z 19017KT 26/18 A2979 RMK A01 T02610182  RH  062%=      5-min Rain = 0
KST2 150746Z 18018KT 26/18 A2979 RMK A01 T02610183  RH  062%=      5-min Rain = 0
KST2 150747Z 18017KT 26/18 A2979 RMK A01 T02600182  RH  062%=      5-min Rain = 0
KST2 150748Z 19020KT 26/18 A2979 RMK A01 T02600182  RH  062%=      5-min Rain = 0
KST2 150749Z 19017KT 26/18 A2979 RMK A01 T02610182  RH  062%=      5-min Rain = 0
KST2 150750Z 19018KT 26/18 A2979 RMK A01 T02600182  RH  062%=      5-min Rain = 0
KST2 150751Z 19015KT 26/18 A2979 RMK A01 T02610183  RH  062%=      5-min Rain = 0
KST2 150752Z 19015KT 26/18 A2979 RMK A01 T02600183  RH  062%=      5-min Rain = 0
KST2 150753Z 19015KT 26/18 A2979 RMK A01 T02600183  RH  062%=      5-min Rain = 0
KST2 150754Z 19017KT 26/18 A298 RMK A01 T02600183  RH  063%=      5-min Rain = 0
KST2 150755Z 20017KT 26/18 A298 RMK A01 T02600183  RH  063%=      5-min Rain = 0
KST2 150756Z 19016KT 26/18 A298 RMK A01 T02600183  RH  063%=      5-min Rain = 0
KST2 150757Z 20015KT 26/18 A298 RMK A01 T02600183  RH  063%=      5-min Rain = 0
KST2 150758Z 19016KT 26/18 A298 RMK A01 T02590183  RH  063%=      5-min Rain = 0
KST2 150759Z 20014KT 26/18 A298 RMK A01 T02590183  RH  063%=      5-min Rain = 0
KST2 150800Z 20014KT 26/18 A298 RMK A01 T02590183  RH  063%=      5-min Rain = 0
KST2 150801Z 20015KT 26/18 A2979 RMK A01 T02580183  RH  063%=      5-min Rain = 0
KST2 150802Z 19015KT 26/18 A2979 RMK A01 T02580183  RH  063%=      5-min Rain = 0
KST2 150803Z 19016KT 26/18 A2979 RMK A01 T02580183  RH  063%=      5-min Rain = 0
KST2 150804Z 19015KT 26/18 A2979 RMK A01 T02580183  RH  063%=      5-min Rain = 0
KST2 150805Z 19016KT 26/18 A2979 RMK A01 T02580183  RH  063%=      5-min Rain = 0
KST2 150806Z 19016KT 26/18 A2979 RMK A01 T02580183  RH  063%=      5-min Rain = 0
KST2 150807Z 19015KT 26/18 A2979 RMK A01 T02580183  RH  063%=      5-min Rain = 0
KST2 150808Z 19017KT 26/18 A2979 RMK A01 T02580183  RH  064%=      5-min Rain = 0
KST2 150809Z 19016KT 26/18 A2979 RMK A01 T02570183  RH  064%=      5-min Rain = 0
KST2 150810Z 19017KT 26/18 A2979 RMK A01 T02570183  RH  064%=      5-min Rain = 0
KST2 150811Z 19014KT 26/18 A2979 RMK A01 T02570183  RH  064%=      5-min Rain = 0
KST2 150812Z 19015KT 26/18 A2979 RMK A01 T02570183  RH  064%=      5-min Rain = 0
KST2 150813Z 19016KT 26/18 A2979 RMK A01 T02570184  RH  064%=      5-min Rain = 0
KST2 150814Z 18016KT 26/18 A2979 RMK A01 T02570183  RH  064%=      5-min Rain = 0
KST2 150815Z 18014KT 26/18 A2979 RMK A01 T02560183  RH  064%=      5-min Rain = 0
KST2 150816Z 19015KT 26/18 A2978 RMK A01 T02560184  RH  064%=      5-min Rain = 0
KST2 150817Z 19015KT 26/18 A2978 RMK A01 T02560184  RH  064%=      5-min Rain = 0
KST2 150818Z 18015KT 26/18 A2978 RMK A01 T02560184  RH  064%=      5-min Rain = 0
KST2 150819Z 18016KT 26/18 A2978 RMK A01 T02560184  RH  064%=      5-min Rain = 0
KST2 150820Z 18015KT 26/18 A2978 RMK A01 T02560184  RH  064%=      5-min Rain = 0
KST2 150821Z 19016KT 26/18 A2978 RMK A01 T02560184  RH  064%=      5-min Rain = 0
KST2 150822Z 18014KT 26/18 A2978 RMK A01 T02560184  RH  064%=      5-min Rain = 0
KST2 150823Z 19018KT 26/18 A2978 RMK A01 T02560184  RH  065%=      5-min Rain = 0
KST2 150824Z 19018KT 26/18 A2978 RMK A01 T02560184  RH  065%=      5-min Rain = 0
KST2 150825Z 19015KT 26/19 A2978 RMK A01 T02560185  RH  065%=      5-min Rain = 0
KST2 150826Z 19015KT 26/18 A2978 RMK A01 T02560184  RH  065%=      5-min Rain = 0
KST2 150827Z 19015KT 26/19 A2978 RMK A01 T02560185  RH  065%=      5-min Rain = 0
KST2 150828Z 19017KT 26/18 A2978 RMK A01 T02560184  RH  065%=      5-min Rain = 0
KST2 150829Z 19015KT 26/19 A2978 RMK A01 T02560185  RH  065%=      5-min Rain = 0
KST2 150830Z 19016KT 26/19 A2978 RMK A01 T02560185  RH  065%=      5-min Rain = 0
KST2 150831Z 19016KT 26/19 A2978 RMK A01 T02560185  RH  065%=      5-min Rain = 0
KST2 150832Z 19016KT 26/19 A2979 RMK A01 T02550185  RH  065%=      5-min Rain = 0
KST2 150833Z 19015KT 26/19 A2979 RMK A01 T02550185  RH  065%=      5-min Rain = 0
KST2 150834Z 19013KT 26/18 A2979 RMK A01 T02550184  RH  065%=      5-min Rain = 0
KST2 150835Z 19013KT 25/18 A2979 RMK A01 T02540184  RH  065%=      5-min Rain = 0
KST2 150836Z 19017KT 25/18 A2978 RMK A01 T02540184  RH  065%=      5-min Rain = 0
KST2 150837Z 19017KT 25/18 A2978 RMK A01 T02540184  RH  065%=      5-min Rain = 0
KST2 150838Z 19016KT 25/18 A2978 RMK A01 T02540184  RH  065%=      5-min Rain = 0
KST2 150839Z 18015KT 25/18 A2978 RMK A01 T02540184  RH  065%=      5-min Rain = 0
KST2 150840Z 19015KT 25/19 A2978 RMK A01 T02540185  RH  066%=      5-min Rain = 0
KST2 150841Z 18017KT 25/19 A2978 RMK A01 T02540185  RH  066%=      5-min Rain = 0
KST2 150842Z 19016KT 25/19 A2978 RMK A01 T02540185  RH  066%=      5-min Rain = 0
KST2 150843Z 19015KT 25/19 A2978 RMK A01 T02540185  RH  066%=      5-min Rain = 0
KST2 150844Z 19013G18KT 25/19 A2978 RMK A01 T02530185  RH  066%=      5-min Rain = 0
KST2 150845Z 19016KT 25/19 A2978 RMK A01 T02530185  RH  066%=      5-min Rain = 0
KST2 150846Z 19015KT 25/19 A2978 RMK A01 T02530185  RH  066%=      5-min Rain = 0
KST2 150847Z 19016KT 25/19 A2978 RMK A01 T02530185  RH  066%=      5-min Rain = 0
KST2 150848Z 19014KT 25/19 A2978 RMK A01 T02530186  RH  066%=      5-min Rain = 0
KST2 150849Z 19014KT 25/19 A2978 RMK A01 T02530185  RH  066%=      5-min Rain = 0
KST2 150850Z 19014KT 25/19 A2978 RMK A01 T02520185  RH  066%=      5-min Rain = 0
KST2 150851Z 19013KT 25/19 A2978 RMK A01 T02520185  RH  066%=      5-min Rain = 0
KST2 150852Z 19015KT 25/19 A2978 RMK A01 T02520185  RH  066%=      5-min Rain = 0
KST2 150853Z 19015KT 25/19 A2978 RMK A01 T02520185  RH  066%=      5-min Rain = 0
KST2 150854Z 19013KT 25/19 A2978 RMK A01 T02520185  RH  066%=      5-min Rain = 0
KST2 150855Z 19013KT 25/19 A2978 RMK A01 T02520185  RH  067%=      5-min Rain = 0
KST2 150856Z 19014KT 25/19 A2978 RMK A01 T02520185  RH  067%=      5-min Rain = 0
KST2 150857Z 19015KT 25/19 A2978 RMK A01 T02510185  RH  067%=      5-min Rain = 0
KST2 150858Z 20013KT 25/19 A2978 RMK A01 T02510185  RH  067%=      5-min Rain = 0
KST2 150859Z 19016KT 25/19 A2978 RMK A01 T02510185  RH  067%=      5-min Rain = 0
KST2 150900Z 19014KT 25/19 A2978 RMK A01 T02510186  RH  067%=      5-min Rain = 0
KST2 150901Z 19014KT 25/19 A2978 RMK A01 T02510186  RH  067%=      5-min Rain = 0
KST2 150902Z 20012KT 25/19 A2978 RMK A01 T02510186  RH  067%=      5-min Rain = 0
KST2 150903Z 19014KT 25/19 A2978 RMK A01 T02510185  RH  067%=      5-min Rain = 0
KST2 150904Z 19015KT 25/19 A2978 RMK A01 T02500185  RH  067%=      5-min Rain = 0
KST2 150905Z 19016KT 25/19 A2978 RMK A01 T02500185  RH  067%=      5-min Rain = 0
KST2 150906Z 19014G19KT 25/19 A2978 RMK A01 T02510186  RH  067%=      5-min Rain = 0
KST2 150907Z 19013KT 25/19 A2978 RMK A01 T02510186  RH  067%=      5-min Rain = 0
KST2 150908Z 19014KT 25/19 A2978 RMK A01 T02510186  RH  067%=      5-min Rain = 0
KST2 150909Z 19016KT 25/19 A2978 RMK A01 T02510186  RH  067%=      5-min Rain = 0
KST2 150910Z 19014KT 25/19 A2978 RMK A01 T02510186  RH  067%=      5-min Rain = 0
KST2 150911Z 19015KT 25/19 A2978 RMK A01 T02500186  RH  067%=      5-min Rain = 0
KST2 150912Z 19016KT 25/19 A2978 RMK A01 T02500186  RH  068%=      5-min Rain = 0
KST2 150913Z 19014KT 25/19 A2978 RMK A01 T02500186  RH  068%=      5-min Rain = 0
KST2 150914Z 19015KT 25/19 A2978 RMK A01 T02500186  RH  068%=      5-min Rain = 0
KST2 150915Z 19014KT 25/19 A2978 RMK A01 T02500186  RH  068%=      5-min Rain = 0
KST2 150916Z 19014KT 25/19 A2978 RMK A01 T02500186  RH  068%=      5-min Rain = 0
KST2 150917Z 19016KT 25/19 A2978 RMK A01 T02500186  RH  068%=      5-min Rain = 0
KST2 150918Z 19016KT 25/19 A2978 RMK A01 T02500186  RH  068%=      5-min Rain = 0
KST2 150919Z 19016KT 25/19 A2978 RMK A01 T02500187  RH  068%=      5-min Rain = 0
KST2 150920Z 19014KT 25/19 A2978 RMK A01 T02500187  RH  068%=      5-min Rain = 0
KST2 150921Z 19014KT 25/19 A2978 RMK A01 T02500187  RH  068%=      5-min Rain = 0
KST2 150922Z 19013KT 25/19 A2978 RMK A01 T02500187  RH  068%=      5-min Rain = 0
KST2 150923Z 19013KT 25/19 A2978 RMK A01 T02490186  RH  068%=      5-min Rain = 0
KST2 150924Z 19013KT 25/19 A2978 RMK A01 T02490187  RH  068%=      5-min Rain = 0
KST2 150925Z 19013KT 25/19 A2978 RMK A01 T02490186  RH  068%=      5-min Rain = 0
KST2 150926Z 19013KT 25/19 A2978 RMK A01 T02490187  RH  068%=      5-min Rain = 0
KST2 150927Z 19013KT 25/19 A2978 RMK A01 T02480187  RH  068%=      5-min Rain = 0
KST2 150928Z 19013KT 25/19 A2978 RMK A01 T02490187  RH  068%=      5-min Rain = 0
KST2 150929Z 19015KT 25/19 A2978 RMK A01 T02490187  RH  069%=      5-min Rain = 0
KST2 150930Z 19013KT 25/19 A2978 RMK A01 T02480187  RH  069%=      5-min Rain = 0
KST2 150931Z 18013KT 25/19 A2978 RMK A01 T02490187  RH  069%=      5-min Rain = 0
KST2 150932Z 19012G17KT 25/19 A2978 RMK A01 T02480187  RH  069%=      5-min Rain = 0
KST2 150933Z 19012KT 25/19 A2978 RMK A01 T02480187  RH  069%=      5-min Rain = 0
KST2 150934Z 18011KT 25/19 A2978 RMK A01 T02480187  RH  069%=      5-min Rain = 0
KST2 150935Z 19013KT 25/19 A2978 RMK A01 T02480187  RH  069%=      5-min Rain = 0
KST2 150936Z 19013KT 25/19 A2978 RMK A01 T02480187  RH  069%=      5-min Rain = 0
KST2 150937Z 18013KT 25/19 A2978 RMK A01 T02480187  RH  069%=      5-min Rain = 0
KST2 150938Z 18011KT 25/19 A2978 RMK A01 T02480187  RH  069%=      5-min Rain = 0
KST2 150939Z 18012KT 25/19 A2978 RMK A01 T02480187  RH  069%=      5-min Rain = 0
KST2 150940Z 18012KT 25/19 A2978 RMK A01 T02470187  RH  069%=      5-min Rain = 0
KST2 150941Z 18014KT 25/19 A2978 RMK A01 T02470187  RH  069%=      5-min Rain = 0
KST2 150942Z 18013KT 25/19 A2978 RMK A01 T02470187  RH  069%=      5-min Rain = 0
KST2 150943Z 18013KT 25/19 A2978 RMK A01 T02470187  RH  069%=      5-min Rain = 0
KST2 150944Z 18014G19KT 25/19 A2978 RMK A01 T02470187  RH  069%=      5-min Rain = 0
KST2 150945Z 18013KT 25/19 A2978 RMK A01 T02470188  RH  069%=      5-min Rain = 0
KST2 150946Z 18013KT 25/19 A2978 RMK A01 T02470188  RH  069%=      5-min Rain = 0
KST2 150947Z 18013KT 25/19 A2978 RMK A01 T02470188  RH  069%=      5-min Rain = 0
KST2 150948Z 18013KT 25/19 A2978 RMK A01 T02470188  RH  070%=      5-min Rain = 0
KST2 150949Z 18013KT 25/19 A2978 RMK A01 T02470188  RH  070%=      5-min Rain = 0
KST2 150950Z 18012KT 25/19 A2978 RMK A01 T02470188  RH  070%=      5-min Rain = 0
KST2 150951Z 18012KT 25/19 A2978 RMK A01 T02470188  RH  070%=      5-min Rain = 0
KST2 150952Z 18011KT 25/19 A2978 RMK A01 T02470188  RH  070%=      5-min Rain = 0
KST2 150953Z 18013KT 25/19 A2978 RMK A01 T02470188  RH  070%=      5-min Rain = 0
KST2 150954Z 17014KT 25/19 A2978 RMK A01 T02470189  RH  070%=      5-min Rain = 0
KST2 150955Z 17012KT 25/19 A2978 RMK A01 T02470189  RH  070%=      5-min Rain = 0
KST2 150956Z 18012KT 25/19 A2978 RMK A01 T02470189  RH  070%=      5-min Rain = 0
KST2 150957Z 18012KT 25/19 A2978 RMK A01 T02470188  RH  070%=      5-min Rain = 0
KST2 150958Z 18011KT 25/19 A2978 RMK A01 T02470188  RH  070%=      5-min Rain = 0
KST2 150959Z 18010KT 25/19 A2978 RMK A01 T02460188  RH  070%=      5-min Rain = 0
KST2 151000Z 18010KT 25/19 A2978 RMK A01 T02460188  RH  070%=      5-min Rain = 0
KST2 151001Z 18012KT 25/19 A2978 RMK A01 T02460188  RH  070%=      5-min Rain = 0
KST2 151002Z 17010KT 25/19 A2978 RMK A01 T02460188  RH  070%=      5-min Rain = 0
KST2 151003Z 18010KT 25/19 A2978 RMK A01 T02450188  RH  070%=      5-min Rain = 0
KST2 151004Z 18010KT 25/19 A2978 RMK A01 T02450188  RH  071%=      5-min Rain = 0
KST2 151005Z 18011KT 25/19 A2978 RMK A01 T02450188  RH  071%=      5-min Rain = 0
KST2 151006Z 18013KT 25/19 A2978 RMK A01 T02450189  RH  071%=      5-min Rain = 0
KST2 151007Z 18012KT 25/19 A2978 RMK A01 T02450189  RH  071%=      5-min Rain = 0
KST2 151008Z 18011KT 25/19 A2978 RMK A01 T02450188  RH  071%=      5-min Rain = 0
KST2 151009Z 18010KT 25/19 A2978 RMK A01 T02450189  RH  071%=      5-min Rain = 0
KST2 151010Z 18010KT 25/19 A2978 RMK A01 T02450189  RH  071%=      5-min Rain = 0
KST2 151011Z 18010KT 25/19 A2978 RMK A01 T02450189  RH  071%=      5-min Rain = 0
KST2 151012Z 18009KT 24/19 A2978 RMK A01 T02440189  RH  071%=      5-min Rain = 0
KST2 151013Z 18010KT 24/19 A2978 RMK A01 T02440189  RH  071%=      5-min Rain = 0
KST2 151014Z 18010KT 24/19 A2978 RMK A01 T02440189  RH  071%=      5-min Rain = 0
KST2 151015Z 18010KT 24/19 A2978 RMK A01 T02440189  RH  071%=      5-min Rain = 0
KST2 151016Z 18011KT 24/19 A2978 RMK A01 T02440189  RH  071%=      5-min Rain = 0
KST2 151017Z 18010KT 24/19 A2978 RMK A01 T02440189  RH  071%=      5-min Rain = 0
KST2 151018Z 18009KT 24/19 A2978 RMK A01 T02440189  RH  071%=      5-min Rain = 0
KST2 151019Z 17011KT 24/19 A2978 RMK A01 T02430189  RH  072%=      5-min Rain = 0
KST2 151020Z 18010KT 24/19 A2978 RMK A01 T02430189  RH  072%=      5-min Rain = 0
KST2 151021Z 18012KT 24/19 A2978 RMK A01 T02430189  RH  072%=      5-min Rain = 0
KST2 151022Z 18010KT 24/19 A2978 RMK A01 T02430189  RH  072%=      5-min Rain = 0
KST2 151023Z 17011KT 24/19 A2978 RMK A01 T02430189  RH  072%=      5-min Rain = 0
KST2 151024Z 18012KT 24/19 A2978 RMK A01 T02430189  RH  072%=      5-min Rain = 0
KST2 151025Z 17012KT 24/19 A2978 RMK A01 T02430189  RH  072%=      5-min Rain = 0
KST2 151026Z 18012KT 24/19 A2978 RMK A01 T02430189  RH  072%=      5-min Rain = 0
KST2 151027Z 18011KT 24/19 A2978 RMK A01 T02430189  RH  072%=      5-min Rain = 0
KST2 151028Z 19012KT 24/19 A2978 RMK A01 T02430190  RH  072%=      5-min Rain = 0
KST2 151029Z 17011KT 24/19 A2978 RMK A01 T02430190  RH  072%=      5-min Rain = 0
KST2 151030Z 17012KT 24/19 A2978 RMK A01 T02420189  RH  072%=      5-min Rain = 0
KST2 151031Z 18013KT 24/19 A2977 RMK A01 T02420190  RH  072%=      5-min Rain = 0
KST2 151032Z 18011KT 24/19 A2978 RMK A01 T02420190  RH  072%=      5-min Rain = 0
KST2 151033Z 18012KT 24/19 A2977 RMK A01 T02420190  RH  072%=      5-min Rain = 0
KST2 151034Z 18011KT 24/19 A2977 RMK A01 T02420190  RH  073%=      5-min Rain = 0
KST2 151035Z 18013KT 24/19 A2977 RMK A01 T02420190  RH  073%=      5-min Rain = 0
KST2 151036Z 18012KT 24/19 A2978 RMK A01 T02420190  RH  073%=      5-min Rain = 0
KST2 151037Z 19013KT 24/19 A2978 RMK A01 T02420190  RH  073%=      5-min Rain = 0
KST2 151038Z 18013KT 24/19 A2978 RMK A01 T02420190  RH  073%=      5-min Rain = 0
KST2 151039Z 18013G18KT 24/19 A2978 RMK A01 T02420191  RH  073%=      5-min Rain = 0
KST2 151040Z 18013KT 24/19 A2978 RMK A01 T02420191  RH  073%=      5-min Rain = 0
KST2 151041Z 18014KT 24/19 A2978 RMK A01 T02420191  RH  073%=      5-min Rain = 0
KST2 151042Z 18012KT 24/19 A2978 RMK A01 T02420191  RH  073%=      5-min Rain = 0
KST2 151043Z 17014G19KT 24/19 A2978 RMK A01 T02420191  RH  073%=      5-min Rain = 0
KST2 151044Z 18014KT 24/19 A2978 RMK A01 T02420191  RH  073%=      5-min Rain = 0
KST2 151045Z 18015KT 24/19 A2977 RMK A01 T02420191  RH  073%=      5-min Rain = 0
KST2 151046Z 18014KT 24/19 A2977 RMK A01 T02420191  RH  073%=      5-min Rain = 0
KST2 151047Z 18015KT 24/19 A2977 RMK A01 T02420191  RH  073%=      5-min Rain = 0
KST2 151048Z 18017KT 24/19 A2977 RMK A01 T02430192  RH  073%=      5-min Rain = 0
KST2 151049Z 18014KT 24/19 A2977 RMK A01 T02430192  RH  073%=      5-min Rain = 0
KST2 151050Z 18014KT 24/19 A2978 RMK A01 T02430192  RH  073%=      5-min Rain = 0
KST2 151051Z 18012KT 24/19 A2978 RMK A01 T02430193  RH  073%=      5-min Rain = 0
KST2 151052Z 18015KT 24/19 A2977 RMK A01 T02430192  RH  073%=      5-min Rain = 0
KST2 151053Z 18014KT 24/19 A2977 RMK A01 T02420192  RH  074%=      5-min Rain = 0
KST2 151054Z 18014KT 24/19 A2977 RMK A01 T02430193  RH  074%=      5-min Rain = 0
KST2 151055Z 18015KT 24/19 A2977 RMK A01 T02430193  RH  074%=      5-min Rain = 0
KST2 151056Z 18016KT 24/19 A2977 RMK A01 T02430193  RH  074%=      5-min Rain = 0
KST2 151057Z 18015KT 24/19 A2977 RMK A01 T02430193  RH  074%=      5-min Rain = 0
KST2 151058Z 18015KT 24/19 A2977 RMK A01 T02420193  RH  074%=      5-min Rain = 0
KST2 151059Z 18014KT 24/19 A2977 RMK A01 T02430193  RH  074%=      5-min Rain = 0
KST2 151100Z 18012KT 24/19 A2977 RMK A01 T02430193  RH  074%=      5-min Rain = 0
KST2 151101Z 18013KT 24/19 A2977 RMK A01 T02430193  RH  074%=      5-min Rain = 0
KST2 151102Z 17018G23KT 24/19 A2977 RMK A01 T02420193  RH  074%=      5-min Rain = 0
KST2 151103Z 18016KT 24/19 A2977 RMK A01 T02420193  RH  074%=      5-min Rain = 0
KST2 151104Z 18015KT 24/19 A2977 RMK A01 T02430193  RH  074%=      5-min Rain = 0
KST2 151105Z 18018KT 24/19 A2977 RMK A01 T02430194  RH  074%=      5-min Rain = 0
KST2 151106Z 18018KT 24/19 A2977 RMK A01 T02430194  RH  074%=      5-min Rain = 0
KST2 151107Z 18017KT 24/19 A2977 RMK A01 T02430194  RH  074%=      5-min Rain = 0
KST2 151108Z 17014KT 24/19 A2977 RMK A01 T02430194  RH  074%=      5-min Rain = 0
KST2 151109Z 18015KT 24/19 A2977 RMK A01 T02430194  RH  074%=      5-min Rain = 0
KST2 151110Z 18014KT 24/19 A2977 RMK A01 T02430194  RH  074%=      5-min Rain = 0
KST2 151111Z 18015KT 24/19 A2977 RMK A01 T02430194  RH  074%=      5-min Rain = 0
KST2 151112Z 18017G22KT 24/20 A2977 RMK A01 T02430195  RH  074%=      5-min Rain = 0
KST2 151113Z 18016KT 24/19 A2977 RMK A01 T02420194  RH  074%=      5-min Rain = 0
KST2 151114Z 18013KT 24/19 A2977 RMK A01 T02430194  RH  074%=      5-min Rain = 0
KST2 151115Z 18017KT 24/20 A2977 RMK A01 T02430195  RH  074%=      5-min Rain = 0
KST2 151116Z 17016G21KT 24/20 A2977 RMK A01 T02430195  RH  074%=      5-min Rain = 0
KST2 151117Z 17018KT 24/20 A2977 RMK A01 T02430195  RH  074%=      5-min Rain = 0
KST2 151118Z 18018KT 24/20 A2977 RMK A01 T02430195  RH  075%=      5-min Rain = 0
KST2 151119Z 17017KT 24/20 A2977 RMK A01 T02430195  RH  075%=      5-min Rain = 0
KST2 151120Z 17018KT 24/20 A2977 RMK A01 T02430195  RH  074%=      5-min Rain = 0
KST2 151121Z 18016KT 24/20 A2977 RMK A01 T02430195  RH  074%=      5-min Rain = 0
KST2 151122Z 18014KT 24/20 A2977 RMK A01 T02440196  RH  075%=      5-min Rain = 0
KST2 151123Z 17016KT 24/20 A2977 RMK A01 T02430195  RH  075%=      5-min Rain = 0
KST2 151124Z 17016KT 24/20 A2977 RMK A01 T02430195  RH  075%=      5-min Rain = 0
KST2 151125Z 17016KT 24/20 A2978 RMK A01 T02420195  RH  075%=      5-min Rain = 0
KST2 151126Z 18017KT 24/20 A2978 RMK A01 T02430195  RH  075%=      5-min Rain = 0
KST2 151127Z 18015KT 24/20 A2978 RMK A01 T02430196  RH  075%=      5-min Rain = 0
KST2 151128Z 17015KT 24/20 A2978 RMK A01 T02430196  RH  075%=      5-min Rain = 0
KST2 151129Z 17015KT 24/20 A2978 RMK A01 T02430196  RH  075%=      5-min Rain = 0
KST2 151130Z 18015KT 24/20 A2978 RMK A01 T02430196  RH  075%=      5-min Rain = 0
KST2 151131Z 18013G18KT 24/20 A2978 RMK A01 T02430196  RH  075%=      5-min Rain = 0
KST2 151132Z 18015KT 24/20 A2978 RMK A01 T02420196  RH  075%=      5-min Rain = 0
KST2 151133Z 18014KT 24/20 A2979 RMK A01 T02420196  RH  075%=      5-min Rain = 0
KST2 151134Z 18014KT 24/20 A2979 RMK A01 T02420196  RH  075%=      5-min Rain = 0
KST2 151135Z 19013KT 24/20 A2979 RMK A01 T02420196  RH  075%=      5-min Rain = 0
KST2 151136Z 19015KT 24/20 A2979 RMK A01 T02430196  RH  075%=      5-min Rain = 0
KST2 151137Z 19012KT 24/20 A2979 RMK A01 T02420196  RH  075%=      5-min Rain = 0
KST2 151138Z 19013KT 24/20 A2979 RMK A01 T02430197  RH  075%=      5-min Rain = 0
KST2 151139Z 19014KT 24/20 A2979 RMK A01 T02420196  RH  076%=      5-min Rain = 0
KST2 151140Z 18014KT 24/20 A2979 RMK A01 T02420196  RH  076%=      5-min Rain = 0
KST2 151141Z 19015KT 24/20 A2979 RMK A01 T02420197  RH  076%=      5-min Rain = 0
KST2 151142Z 19014KT 24/20 A2979 RMK A01 T02420197  RH  076%=      5-min Rain = 0
KST2 151143Z 19013G18KT 24/20 A2979 RMK A01 T02420197  RH  076%=      5-min Rain = 0
KST2 151144Z 19013KT 24/20 A2979 RMK A01 T02420197  RH  076%=      5-min Rain = 0
KST2 151145Z 18017KT 24/20 A2979 RMK A01 T02420197  RH  076%=      5-min Rain = 0
KST2 151146Z 19015KT 24/20 A2979 RMK A01 T02420197  RH  076%=      5-min Rain = 0
KST2 151147Z 19016KT 24/20 A2979 RMK A01 T02430198  RH  076%=      5-min Rain = 0
KST2 151148Z 19016KT 24/20 A2979 RMK A01 T02430198  RH  076%=      5-min Rain = 0
KST2 151149Z 19017KT 24/20 A2979 RMK A01 T02430197  RH  076%=      5-min Rain = 0
KST2 151150Z 19016KT 24/20 A2979 RMK A01 T02430198  RH  076%=      5-min Rain = 0
KST2 151151Z 19016KT 24/20 A2979 RMK A01 T02430198  RH  076%=      5-min Rain = 0
KST2 151152Z 19016KT 24/20 A2979 RMK A01 T02430198  RH  076%=      5-min Rain = 0
KST2 151153Z 18017KT 24/20 A2979 RMK A01 T02420198  RH  076%=      5-min Rain = 0
KST2 151154Z 19015KT 24/20 A2979 RMK A01 T02420198  RH  076%=      5-min Rain = 0
KST2 151155Z 18017KT 24/20 A2979 RMK A01 T02420198  RH  076%=      5-min Rain = 0
KST2 151156Z 19014KT 24/20 A2979 RMK A01 T02420198  RH  076%=      5-min Rain = 0
KST2 151157Z 19014G19KT 24/20 A298 RMK A01 T02420198  RH  076%=      5-min Rain = 0
KST2 151158Z 19014KT 24/20 A298 RMK A01 T02420198  RH  076%=      5-min Rain = 0
KST2 151159Z 19014KT 24/20 A298 RMK A01 T02420198  RH  076%=      5-min Rain = 0
KST2 151200Z 19015KT 24/20 A298 RMK A01 T02420198  RH  077%=      5-min Rain = 0
KST2 151201Z 18016KT 24/20 A298 RMK A01 T02420198  RH  076%=      5-min Rain = 0
KST2 151202Z 18015KT 24/20 A298 RMK A01 T02420199  RH  076%=      5-min Rain = 0
KST2 151203Z 19016KT 24/20 A298 RMK A01 T02430199  RH  076%=      5-min Rain = 0
KST2 151204Z 19016KT 24/20 A298 RMK A01 T02430199  RH  076%=      5-min Rain = 0
KST2 151205Z 19017KT 24/20 A298 RMK A01 T02430199  RH  076%=      5-min Rain = 0
KST2 151206Z 19015KT 24/20 A298 RMK A01 T02430199  RH  076%=      5-min Rain = 0
KST2 151207Z 19015KT 24/20 A298 RMK A01 T02430199  RH  076%=      5-min Rain = 0
KST2 151208Z 19014KT 24/20 A298 RMK A01 T02430199  RH  077%=      5-min Rain = 0
KST2 151209Z 18014KT 24/20 A298 RMK A01 T02430199  RH  077%=      5-min Rain = 0
KST2 151210Z 18015KT 24/20 A298 RMK A01 T02430199  RH  077%=      5-min Rain = 0
KST2 151211Z 18014KT 24/20 A298 RMK A01 T02430199  RH  077%=      5-min Rain = 0
KST2 151212Z 18011KT 24/20 A298 RMK A01 T02440200  RH  077%=      5-min Rain = 0
KST2 151213Z 18013KT 24/20 A298 RMK A01 T02440200  RH  077%=      5-min Rain = 0
KST2 151214Z 19014KT 24/20 A298 RMK A01 T02430200  RH  077%=      5-min Rain = 0
KST2 151215Z 18013KT 24/20 A298 RMK A01 T02430200  RH  077%=      5-min Rain = 0
KST2 151216Z 19013KT 24/20 A2981 RMK A01 T02440200  RH  077%=      5-min Rain = 0
KST2 151217Z 19012KT 24/20 A2981 RMK A01 T02430200  RH  077%=      5-min Rain = 0
KST2 151218Z 19011KT 24/20 A2981 RMK A01 T02440200  RH  077%=      5-min Rain = 0
KST2 151219Z 19013KT 24/20 A2981 RMK A01 T02440201  RH  077%=      5-min Rain = 0
KST2 151220Z 19013KT 24/20 A2981 RMK A01 T02440201  RH  077%=      5-min Rain = 0
KST2 151221Z 18012KT 24/20 A2981 RMK A01 T02440201  RH  077%=      5-min Rain = 0
KST2 151222Z 19012KT 24/20 A2981 RMK A01 T02440201  RH  077%=      5-min Rain = 0
KST2 151223Z 18012KT 24/20 A2981 RMK A01 T02440201  RH  077%=      5-min Rain = 0
KST2 151224Z 18014KT 24/20 A2981 RMK A01 T02440201  RH  077%=      5-min Rain = 0
KST2 151225Z 18012KT 25/20 A2981 RMK A01 T02450201  RH  077%=      5-min Rain = 0
KST2 151226Z 19013KT 25/20 A2981 RMK A01 T02450202  RH  077%=      5-min Rain = 0
KST2 151227Z 19012KT 25/20 A2981 RMK A01 T02450202  RH  077%=      5-min Rain = 0
KST2 151228Z 18011KT 25/20 A2981 RMK A01 T02450202  RH  077%=      5-min Rain = 0
KST2 151229Z 18011KT 25/20 A2981 RMK A01 T02450202  RH  077%=      5-min Rain = 0
KST2 151230Z 19011KT 25/20 A2981 RMK A01 T02460202  RH  077%=      5-min Rain = 0
KST2 151231Z 18011KT 25/20 A2982 RMK A01 T02460202  RH  077%=      5-min Rain = 0
KST2 151232Z 18012KT 25/20 A2982 RMK A01 T02460202  RH  077%=      5-min Rain = 0
KST2 151233Z 18011KT 25/20 A2982 RMK A01 T02460203  RH  077%=      5-min Rain = 0
KST2 151234Z 19012KT 25/20 A2982 RMK A01 T02460203  RH  077%=      5-min Rain = 0
KST2 151235Z 18012KT 25/20 A2982 RMK A01 T02460203  RH  077%=      5-min Rain = 0
KST2 151236Z 19011KT 25/20 A2982 RMK A01 T02470203  RH  077%=      5-min Rain = 0
KST2 151237Z 18012KT 25/20 A2982 RMK A01 T02470203  RH  077%=      5-min Rain = 0
KST2 151238Z 18013KT 25/20 A2982 RMK A01 T02470203  RH  077%=      5-min Rain = 0
KST2 151239Z 18012KT 25/20 A2982 RMK A01 T02470203  RH  077%=      5-min Rain = 0
KST2 151240Z 18013KT 25/20 A2982 RMK A01 T02470203  RH  077%=      5-min Rain = 0
KST2 151241Z 18012KT 25/20 A2982 RMK A01 T02480204  RH  077%=      5-min Rain = 0
KST2 151242Z 19012KT 25/20 A2982 RMK A01 T02480204  RH  077%=      5-min Rain = 0
KST2 151243Z 19011KT 25/20 A2982 RMK A01 T02480204  RH  077%=      5-min Rain = 0
KST2 151244Z 19012G17KT 25/20 A2982 RMK A01 T02480204  RH  077%=      5-min Rain = 0
KST2 151245Z 19013KT 25/21 A2982 RMK A01 T02480205  RH  077%=      5-min Rain = 0
KST2 151246Z 18014KT 25/21 A2981 RMK A01 T02490205  RH  076%=      5-min Rain = 0
KST2 151247Z 18012KT 25/21 A2981 RMK A01 T02490205  RH  076%=      5-min Rain = 0
KST2 151248Z 19015KT 25/21 A2981 RMK A01 T02490205  RH  076%=      5-min Rain = 0
KST2 151249Z 19014KT 25/21 A2981 RMK A01 T02500205  RH  076%=      5-min Rain = 0
KST2 151250Z 18013KT 25/21 A2981 RMK A01 T02500205  RH  076%=      5-min Rain = 0
KST2 151251Z 19013KT 25/21 A2981 RMK A01 T02490205  RH  076%=      5-min Rain = 0
KST2 151252Z 18015KT 25/21 A2981 RMK A01 T02500206  RH  076%=      5-min Rain = 0
KST2 151253Z 19016KT 25/21 A2981 RMK A01 T02500206  RH  076%=      5-min Rain = 0
KST2 151254Z 19016KT 25/21 A2981 RMK A01 T02500206  RH  076%=      5-min Rain = 0
KST2 151255Z 18016KT 25/21 A2981 RMK A01 T02500205  RH  076%=      5-min Rain = 0
KST2 151256Z 19014KT 25/21 A2981 RMK A01 T02500206  RH  076%=      5-min Rain = 0
KST2 151257Z 18017KT 25/21 A2981 RMK A01 T02510206  RH  076%=      5-min Rain = 0
KST2 151258Z 18017KT 25/21 A2981 RMK A01 T02510206  RH  076%=      5-min Rain = 0
KST2 151259Z 18015KT 25/21 A2981 RMK A01 T02520206  RH  076%=      5-min Rain = 0
KST2 151300Z 19014KT 25/21 A2981 RMK A01 T02520207  RH  076%=      5-min Rain = 0
KST2 151301Z 19016KT 25/21 A2981 RMK A01 T02520206  RH  076%=      5-min Rain = 0
KST2 151302Z 19017KT 25/21 A2981 RMK A01 T02520206  RH  076%=      5-min Rain = 0
KST2 151303Z 19016KT 25/21 A2981 RMK A01 T02520207  RH  076%=      5-min Rain = 0
KST2 151304Z 19014KT 25/21 A2981 RMK A01 T02520207  RH  076%=      5-min Rain = 0
KST2 151305Z 19015KT 25/21 A2981 RMK A01 T02530207  RH  076%=      5-min Rain = 0
KST2 151306Z 19020KT 25/21 A2981 RMK A01 T02530207  RH  076%=      5-min Rain = 0
KST2 151307Z 19019KT 25/21 A2981 RMK A01 T02530207  RH  075%=      5-min Rain = 0
KST2 151308Z 20018KT 25/21 A2981 RMK A01 T02530207  RH  076%=      5-min Rain = 0
KST2 151309Z 19017KT 25/21 A2981 RMK A01 T02540208  RH  075%=      5-min Rain = 0
KST2 151310Z 19018KT 25/21 A2981 RMK A01 T02540207  RH  075%=      5-min Rain = 0
KST2 151311Z 19017KT 25/21 A2981 RMK A01 T02540207  RH  075%=      5-min Rain = 0
KST2 151312Z 19018KT 25/21 A2981 RMK A01 T02540207  RH  075%=      5-min Rain = 0
KST2 151313Z 18017KT 25/21 A2981 RMK A01 T02540207  RH  075%=      5-min Rain = 0
KST2 151314Z 19018KT 25/21 A2981 RMK A01 T02540207  RH  075%=      5-min Rain = 0
KST2 151315Z 19021KT 25/21 A2981 RMK A01 T02540207  RH  075%=      5-min Rain = 0
KST2 151316Z 19019KT 26/21 A2981 RMK A01 T02550207  RH  075%=      5-min Rain = 0
KST2 151317Z 18019KT 26/21 A2981 RMK A01 T02550208  RH  075%=      5-min Rain = 0
KST2 151318Z 19019KT 26/21 A2981 RMK A01 T02550207  RH  075%=      5-min Rain = 0
KST2 151319Z 19017KT 26/21 A2981 RMK A01 T02550208  RH  075%=      5-min Rain = 0
KST2 151320Z 19015KT 26/21 A2981 RMK A01 T02550208  RH  075%=      5-min Rain = 0
KST2 151321Z 20019KT 26/21 A2981 RMK A01 T02560208  RH  075%=      5-min Rain = 0
KST2 151322Z 19014KT 26/21 A2982 RMK A01 T02570209  RH  075%=      5-min Rain = 0
KST2 151323Z 19019KT 26/21 A2981 RMK A01 T02570209  RH  075%=      5-min Rain = 0
KST2 151324Z 19018KT 26/21 A2982 RMK A01 T02580209  RH  074%=      5-min Rain = 0
KST2 151325Z 20018KT 26/21 A2981 RMK A01 T02580209  RH  074%=      5-min Rain = 0
KST2 151326Z 20018KT 26/21 A2982 RMK A01 T02580209  RH  074%=      5-min Rain = 0
KST2 151327Z 19016KT 26/21 A2982 RMK A01 T02580209  RH  074%=      5-min Rain = 0
KST2 151328Z 19019KT 26/21 A2982 RMK A01 T02590209  RH  074%=      5-min Rain = 0
KST2 151329Z 19017KT 26/21 A2981 RMK A01 T02590209  RH  074%=      5-min Rain = 0
KST2 151330Z 19017KT 26/21 A2981 RMK A01 T02590209  RH  074%=      5-min Rain = 0
KST2 151331Z 19017KT 26/21 A2982 RMK A01 T02600209  RH  074%=      5-min Rain = 0
KST2 151332Z 19018KT 26/21 A2982 RMK A01 T02600210  RH  074%=      5-min Rain = 0
KST2 151333Z 20018KT 26/21 A2981 RMK A01 T02600210  RH  074%=      5-min Rain = 0
KST2 151334Z 18018KT 26/21 A2981 RMK A01 T02600210  RH  074%=      5-min Rain = 0
KST2 151335Z 19017G22KT 26/21 A2981 RMK A01 T02600209  RH  074%=      5-min Rain = 0
KST2 151336Z 19020KT 26/21 A2981 RMK A01 T02600210  RH  074%=      5-min Rain = 0
KST2 151337Z 19019KT 26/21 A2981 RMK A01 T02610209  RH  073%=      5-min Rain = 0
KST2 151338Z 19019KT 26/21 A2981 RMK A01 T02600209  RH  073%=      5-min Rain = 0
KST2 151339Z 19017KT 26/21 A2981 RMK A01 T02610209  RH  073%=      5-min Rain = 0
KST2 151340Z 18018G24KT 26/21 A2981 RMK A01 T02610210  RH  073%=      5-min Rain = 0
KST2 151341Z 19019KT 26/21 A2981 RMK A01 T02620210  RH  073%=      5-min Rain = 0
KST2 151342Z 19017G23KT 26/21 A2981 RMK A01 T02620210  RH  073%=      5-min Rain = 0
KST2 151343Z 18021G26KT 26/21 A2981 RMK A01 T02620210  RH  073%=      5-min Rain = 0
KST2 151344Z 19017G22KT 26/21 A2981 RMK A01 T02630210  RH  073%=      5-min Rain = 0
KST2 151345Z 18017KT 26/21 A2981 RMK A01 T02630210  RH  073%=      5-min Rain = 0
KST2 151346Z 19020KT 26/21 A2981 RMK A01 T02630210  RH  072%=      5-min Rain = 0
KST2 151347Z 19019KT 26/21 A2981 RMK A01 T02630210  RH  072%=      5-min Rain = 0
KST2 151348Z 19019G24KT 26/21 A2981 RMK A01 T02630210  RH  072%=      5-min Rain = 0
KST2 151349Z 18021KT 26/21 A2981 RMK A01 T02640210  RH  072%=      5-min Rain = 0
KST2 151350Z 18017G22KT 26/21 A2981 RMK A01 T02640210  RH  072%=      5-min Rain = 0
KST2 151351Z 19017KT 26/21 A2981 RMK A01 T02640210  RH  072%=      5-min Rain = 0
KST2 151352Z 20017G24KT 27/21 A2981 RMK A01 T02650210  RH  072%=      5-min Rain = 0
KST2 151353Z 19017KT 27/21 A2981 RMK A01 T02650210  RH  072%=      5-min Rain = 0
KST2 151354Z 19022KT 27/21 A2981 RMK A01 T02650210  RH  071%=      5-min Rain = 0
KST2 151355Z 19019KT 27/21 A2981 RMK A01 T02660210  RH  071%=      5-min Rain = 0
KST2 151356Z 19018G23KT 27/21 A2981 RMK A01 T02650210  RH  072%=      5-min Rain = 0
KST2 151357Z 18016KT 27/21 A2981 RMK A01 T02660210  RH  071%=      5-min Rain = 0
KST2 151358Z 18015KT 27/21 A2981 RMK A01 T02660210  RH  071%=      5-min Rain = 0
KST2 151359Z 19020KT 27/21 A2981 RMK A01 T02670211  RH  071%=      5-min Rain = 0
KST2 151400Z 19018KT 27/21 A2981 RMK A01 T02670210  RH  071%=      5-min Rain = 0
KST2 151401Z 19018KT 27/21 A2981 RMK A01 T02670211  RH  071%=      5-min Rain = 0
KST2 151402Z 18017KT 27/21 A2981 RMK A01 T02670210  RH  071%=      5-min Rain = 0
KST2 151403Z 19016G21KT 27/21 A2981 RMK A01 T02680210  RH  071%=      5-min Rain = 0
KST2 151404Z 19016KT 27/21 A2981 RMK A01 T02690210  RH  070%=      5-min Rain = 0
KST2 151405Z 18014G23KT 27/21 A2981 RMK A01 T02700211  RH  070%=      5-min Rain = 0
KST2 151406Z 18019KT 27/21 A2981 RMK A01 T02700211  RH  070%=      5-min Rain = 0
KST2 151407Z 19015KT 27/21 A2981 RMK A01 T02700210  RH  070%=      5-min Rain = 0
KST2 151408Z 19017KT 27/21 A2981 RMK A01 T02690211  RH  070%=      5-min Rain = 0
KST2 151409Z 18017KT 27/21 A2981 RMK A01 T02690210  RH  070%=      5-min Rain = 0
KST2 151410Z 18015KT 27/21 A2981 RMK A01 T02690210  RH  070%=      5-min Rain = 0
KST2 151411Z 18015G21KT 27/21 A2981 RMK A01 T02690210  RH  070%=      5-min Rain = 0
KST2 151412Z 18016KT 27/21 A2981 RMK A01 T02700210  RH  070%=      5-min Rain = 0
KST2 151413Z 18017KT 27/21 A2981 RMK A01 T02710211  RH  069%=      5-min Rain = 0
KST2 151414Z 19018KT 27/21 A2981 RMK A01 T02710210  RH  069%=      5-min Rain = 0
KST2 151415Z 18016KT 27/21 A2981 RMK A01 T02710210  RH  069%=      5-min Rain = 0
KST2 151416Z 18013KT 27/21 A2981 RMK A01 T02710210  RH  069%=      5-min Rain = 0
KST2 151417Z 18016KT 27/21 A2981 RMK A01 T02720211  RH  069%=      5-min Rain = 0
KST2 151418Z 18016G21KT 27/21 A2981 RMK A01 T02730211  RH  069%=      5-min Rain = 0
KST2 151419Z 18018KT 27/21 A2981 RMK A01 T02730211  RH  069%=      5-min Rain = 0
KST2 151420Z 19019KT 27/21 A2981 RMK A01 T02730211  RH  069%=      5-min Rain = 0
KST2 151421Z 19017KT 27/21 A2981 RMK A01 T02730210  RH  068%=      5-min Rain = 0
KST2 151422Z 19018KT 27/21 A2981 RMK A01 T02730210  RH  068%=      5-min Rain = 0
KST2 151423Z 19014KT 27/21 A2981 RMK A01 T02730210  RH  068%=      5-min Rain = 0
KST2 151424Z 20016KT 28/21 A2981 RMK A01 T02750210  RH  068%=      5-min Rain = 0
KST2 151425Z 19018KT 28/21 A2981 RMK A01 T02750210  RH  068%=      5-min Rain = 0
KST2 151426Z 19017KT 28/21 A2981 RMK A01 T02750209  RH  067%=      5-min Rain = 0
KST2 151427Z 19017KT 28/21 A2981 RMK A01 T02750209  RH  067%=      5-min Rain = 0
KST2 151428Z 19016KT 28/21 A2981 RMK A01 T02750209  RH  067%=      5-min Rain = 0
KST2 151429Z 19017KT 28/21 A2981 RMK A01 T02760210  RH  068%=      5-min Rain = 0
KST2 151430Z 19014KT 28/21 A2981 RMK A01 T02770210  RH  067%=      5-min Rain = 0
KST2 151431Z 18018KT 28/21 A2981 RMK A01 T02770210  RH  067%=      5-min Rain = 0
KST2 151432Z 18020KT 28/21 A2981 RMK A01 T02780209  RH  066%=      5-min Rain = 0
KST2 151433Z 19019G24KT 28/21 A2981 RMK A01 T02780209  RH  066%=      5-min Rain = 0
KST2 151434Z 19017KT 28/21 A2981 RMK A01 T02770208  RH  066%=      5-min Rain = 0
KST2 151435Z 19019KT 28/21 A2981 RMK A01 T02770208  RH  066%=      5-min Rain = 0
KST2 151436Z 19020G25KT 28/21 A2981 RMK A01 T02780209  RH  066%=      5-min Rain = 0
KST2 151437Z 19020KT 28/21 A2981 RMK A01 T02790209  RH  066%=      5-min Rain = 0
KST2 151438Z 19018KT 28/21 A2981 RMK A01 T02790208  RH  065%=      5-min Rain = 0
KST2 151439Z 19018KT 28/21 A2981 RMK A01 T02790209  RH  066%=      5-min Rain = 0
KST2 151440Z 19017KT 28/21 A2981 RMK A01 T02790209  RH  065%=      5-min Rain = 0
KST2 151441Z 19016KT 28/21 A2981 RMK A01 T02800210  RH  066%=      5-min Rain = 0
KST2 151442Z 19020KT 28/21 A2981 RMK A01 T02810209  RH  065%=      5-min Rain = 0
KST2 151443Z 19020KT 28/21 A2981 RMK A01 T02810209  RH  065%=      5-min Rain = 0
KST2 151444Z 19018KT 28/21 A2981 RMK A01 T02810208  RH  065%=      5-min Rain = 0
KST2 151445Z 19019KT 28/21 A2981 RMK A01 T02810209  RH  065%=      5-min Rain = 0
KST2 151446Z 18020KT 28/21 A2981 RMK A01 T02810208  RH  064%=      5-min Rain = 0
KST2 151447Z 18019KT 28/21 A2981 RMK A01 T02820207  RH  064%=      5-min Rain = 0
KST2 151448Z 19022KT 28/21 A298 RMK A01 T02820207  RH  064%=      5-min Rain = 0
KST2 151449Z 19020KT 28/21 A2981 RMK A01 T02820207  RH  064%=      5-min Rain = 0
KST2 151450Z 18021KT 28/21 A298 RMK A01 T02820207  RH  064%=      5-min Rain = 0
KST2 151451Z 19021KT 28/21 A298 RMK A01 T02820206  RH  064%=      5-min Rain = 0
KST2 151452Z 19022KT 28/21 A298 RMK A01 T02820206  RH  063%=      5-min Rain = 0
KST2 151453Z 19019KT 28/21 A298 RMK A01 T02810206  RH  064%=      5-min Rain = 0
KST2 151454Z 19020G25KT 28/21 A298 RMK A01 T02810206  RH  064%=      5-min Rain = 0
KST2 151455Z 18018KT 28/21 A298 RMK A01 T02820207  RH  064%=      5-min Rain = 0
KST2 151456Z 19019G28KT 28/21 A298 RMK A01 T02820207  RH  064%=      5-min Rain = 0
KST2 151457Z 19021KT 28/21 A298 RMK A01 T02840208  RH  063%=      5-min Rain = 0
KST2 151458Z 19019KT 29/21 A298 RMK A01 T02850208  RH  063%=      5-min Rain = 0
KST2 151459Z 19020KT 29/21 A298 RMK A01 T02850208  RH  063%=      5-min Rain = 0
KST2 151500Z 19019KT 29/21 A298 RMK A01 T02850207  RH  063%=      5-min Rain = 0
KST2 151501Z 20020G26KT 29/21 A298 RMK A01 T02850206  RH  062%=      5-min Rain = 0
KST2 151502Z 19017KT 29/21 A298 RMK A01 T02860206  RH  062%=      5-min Rain = 0
KST2 151503Z 20016KT 29/21 A298 RMK A01 T02870208  RH  062%=      5-min Rain = 0
KST2 151504Z 20018KT 29/21 A298 RMK A01 T02890209  RH  062%=      5-min Rain = 0
KST2 151505Z 20020KT 29/21 A298 RMK A01 T02910209  RH  061%=      5-min Rain = 0
KST2 151506Z 21023KT 29/21 A298 RMK A01 T02910208  RH  061%=      5-min Rain = 0
KST2 151507Z 19019KT 29/21 A298 RMK A01 T02910207  RH  060%=      5-min Rain = 0
KST2 151508Z 20019KT 29/21 A298 RMK A01 T02910207  RH  061%=      5-min Rain = 0
KST2 151509Z 20020KT 29/21 A298 RMK A01 T02900206  RH  061%=      5-min Rain = 0
KST2 151510Z 19022KT 29/21 A298 RMK A01 T02910207  RH  061%=      5-min Rain = 0
KST2 151511Z 20022KT 29/21 A298 RMK A01 T02900206  RH  060%=      5-min Rain = 0
KST2 151512Z 19020KT 29/21 A298 RMK A01 T02900205  RH  060%=      5-min Rain = 0
KST2 151513Z 19021KT 29/21 A298 RMK A01 T02900205  RH  060%=      5-min Rain = 0
KST2 151514Z 19019KT 29/20 A298 RMK A01 T02890204  RH  060%=      5-min Rain = 0
KST2 151515Z 19020KT 29/20 A298 RMK A01 T02880204  RH  060%=      5-min Rain = 0
KST2 151516Z 19021KT 29/20 A298 RMK A01 T02890204  RH  060%=      5-min Rain = 0
KST2 151517Z 19021KT 29/20 A298 RMK A01 T02890204  RH  060%=      5-min Rain = 0
KST2 151518Z 20022KT 29/20 A298 RMK A01 T02890204  RH  060%=      5-min Rain = 0
KST2 151519Z 20022KT 29/20 A298 RMK A01 T02890204  RH  060%=      5-min Rain = 0
KST2 151520Z 20023KT 29/20 A298 RMK A01 T02910204  RH  060%=      5-min Rain = 0
KST2 151521Z 20020KT 29/20 A298 RMK A01 T02920204  RH  059%=      5-min Rain = 0
KST2 151522Z 20022KT 29/20 A298 RMK A01 T02920204  RH  059%=      5-min Rain = 0
KST2 151523Z 20022KT 29/20 A298 RMK A01 T02920203  RH  058%=      5-min Rain = 0
KST2 151524Z 20019G25KT 29/20 A298 RMK A01 T02920203  RH  059%=      5-min Rain = 0
KST2 151525Z 20020KT 29/21 A298 RMK A01 T02930205  RH  059%=      5-min Rain = 0
KST2 151526Z 19021KT 29/21 A298 RMK A01 T02940205  RH  059%=      5-min Rain = 0
KST2 151527Z 19021KT 30/21 A298 RMK A01 T02950205  RH  059%=      5-min Rain = 0
KST2 151528Z 19019KT 30/21 A298 RMK A01 T02950205  RH  058%=      5-min Rain = 0
KST2 151529Z 21022KT 30/21 A298 RMK A01 T02960205  RH  058%=      5-min Rain = 0
KST2 151530Z 20020KT 30/20 A298 RMK A01 T02960204  RH  058%=      5-min Rain = 0
KST2 151531Z 20020KT 30/20 A298 RMK A01 T02970204  RH  058%=      5-min Rain = 0
KST2 151532Z 20020KT 30/20 A298 RMK A01 T02970204  RH  057%=      5-min Rain = 0
KST2 151533Z 21018KT 30/20 A298 RMK A01 T02970204  RH  057%=      5-min Rain = 0
KST2 151534Z 20019KT 30/21 A298 RMK A01 T02990205  RH  057%=      5-min Rain = 0
KST2 151535Z 20018KT 30/21 A298 RMK A01 T03000206  RH  057%=      5-min Rain = 0
KST2 151536Z 20018KT 30/21 A298 RMK A01 T03010206  RH  056%=      5-min Rain = 0
KST2 151537Z 20018KT 30/21 A298 RMK A01 T03010205  RH  056%=      5-min Rain = 0
KST2 151538Z 19016KT 30/21 A298 RMK A01 T03020207  RH  057%=      5-min Rain = 0
KST2 151539Z 19015KT 30/21 A298 RMK A01 T03020207  RH  057%=      5-min Rain = 0
KST2 151540Z 19016KT 30/21 A2981 RMK A01 T03030207  RH  056%=      5-min Rain = 0
KST2 151541Z 19018KT 30/21 A2981 RMK A01 T03030206  RH  056%=      5-min Rain = 0
KST2 151542Z 19022KT 30/21 A298 RMK A01 T03020205  RH  056%=      5-min Rain = 0
KST2 151543Z 20023KT 30/20 A298 RMK A01 T03000203  RH  056%=      5-min Rain = 0
KST2 151544Z 21022KT 30/20 A298 RMK A01 T02990203  RH  056%=      5-min Rain = 0
KST2 151545Z 21019KT 30/20 A2981 RMK A01 T02980202  RH  056%=      5-min Rain = 0
KST2 151546Z 21017KT 30/20 A298 RMK A01 T02980202  RH  056%=      5-min Rain = 0
KST2 151547Z 19015KT 30/20 A2981 RMK A01 T02980203  RH  057%=      5-min Rain = 0
KST2 151548Z 20020G25KT 30/20 A2981 RMK A01 T02990204  RH  057%=      5-min Rain = 0
KST2 151549Z 19016KT 30/20 A2981 RMK A01 T03000204  RH  057%=      5-min Rain = 0
KST2 151550Z 19018KT 30/21 A2981 RMK A01 T03000205  RH  057%=      5-min Rain = 0
KST2 151551Z 19018KT 30/20 A2981 RMK A01 T03000204  RH  056%=      5-min Rain = 0
KST2 151552Z 19017KT 30/20 A2981 RMK A01 T03000204  RH  056%=      5-min Rain = 0
KST2 151553Z 19018KT 30/20 A298 RMK A01 T02990204  RH  057%=      5-min Rain = 0
KST2 151554Z 19017KT 30/21 A298 RMK A01 T02990205  RH  057%=      5-min Rain = 0
KST2 151555Z 19021KT 30/21 A298 RMK A01 T03010205  RH  056%=      5-min Rain = 0
KST2 151556Z 19018KT 30/21 A298 RMK A01 T03010205  RH  057%=      5-min Rain = 0
KST2 151557Z 19019KT 30/21 A298 RMK A01 T03000205  RH  057%=      5-min Rain = 0
KST2 151558Z 19018G23KT 30/21 A298 RMK A01 T03000205  RH  057%=      5-min Rain = 0
KST2 151559Z 19019KT 30/21 A298 RMK A01 T03000205  RH  057%=      5-min Rain = 0
KST2 151600Z 19019G24KT 30/21 A298 RMK A01 T03010206  RH  057%=      5-min Rain = 0
KST2 151601Z 20021KT 30/21 A298 RMK A01 T03030206  RH  056%=      5-min Rain = 0
KST2 151602Z 20019KT 30/21 A298 RMK A01 T03030207  RH  056%=      5-min Rain = 0
KST2 151603Z 20020KT 30/21 A298 RMK A01 T03030207  RH  057%=      5-min Rain = 0
KST2 151604Z 21021KT 30/21 A298 RMK A01 T03040207  RH  056%=      5-min Rain = 0
KST2 151605Z 21021KT 31/21 A298 RMK A01 T03050206  RH  056%=      5-min Rain = 0
KST2 151606Z 21019KT 30/21 A298 RMK A01 T03040205  RH  056%=      5-min Rain = 0
KST2 151607Z 19020KT 30/21 A298 RMK A01 T03030206  RH  056%=      5-min Rain = 0
KST2 151608Z 20017KT 30/21 A298 RMK A01 T03040205  RH  056%=      5-min Rain = 0
KST2 151609Z 21018KT 30/21 A298 RMK A01 T03040206  RH  056%=      5-min Rain = 0
KST2 151610Z 21019KT 30/21 A2979 RMK A01 T03040206  RH  056%=      5-min Rain = 0
KST2 151611Z 20019KT 30/21 A2979 RMK A01 T03040206  RH  056%=      5-min Rain = 0
KST2 151612Z 21018KT 31/21 A2979 RMK A01 T03050206  RH  055%=      5-min Rain = 0
KST2 151613Z 20017KT 31/21 A2979 RMK A01 T03050205  RH  055%=      5-min Rain = 0
KST2 151614Z 20020KT 31/21 A2979 RMK A01 T03060207  RH  056%=      5-min Rain = 0
KST2 151615Z 20017KT 31/21 A298 RMK A01 T03080208  RH  055%=      5-min Rain = 0
KST2 151616Z 19019KT 31/21 A298 RMK A01 T03100209  RH  055%=      5-min Rain = 0
KST2 151617Z 18018KT 31/21 A2979 RMK A01 T03100207  RH  054%=      5-min Rain = 0
KST2 151618Z 19017KT 31/21 A298 RMK A01 T03090207  RH  055%=      5-min Rain = 0
KST2 151619Z 21020KT 31/21 A298 RMK A01 T03080207  RH  055%=      5-min Rain = 0
KST2 151620Z 21018KT 31/21 A298 RMK A01 T03090207  RH  055%=      5-min Rain = 0
KST2 151621Z 21020KT 31/21 A298 RMK A01 T03110207  RH  054%=      5-min Rain = 0
KST2 151622Z 20018KT 31/21 A298 RMK A01 T03110207  RH  054%=      5-min Rain = 0
KST2 151623Z 19017KT 31/21 A298 RMK A01 T03110207  RH  054%=      5-min Rain = 0
KST2 151624Z 19020KT 31/21 A2979 RMK A01 T03110207  RH  054%=      5-min Rain = 0
KST2 151625Z 20018G23KT 31/21 A298 RMK A01 T03100206  RH  054%=      5-min Rain = 0
KST2 151626Z 21019KT 31/21 A298 RMK A01 T03090205  RH  054%=      5-min Rain = 0
KST2 151627Z 20018KT 31/21 A298 RMK A01 T03100205  RH  054%=      5-min Rain = 0
KST2 151628Z 19019KT 31/21 A298 RMK A01 T03110206  RH  054%=      5-min Rain = 0
KST2 151629Z 20020KT 31/21 A298 RMK A01 T03120206  RH  053%=      5-min Rain = 0
KST2 151630Z 20017KT 31/21 A298 RMK A01 T03130206  RH  053%=      5-min Rain = 0
KST2 151631Z 20018KT 31/21 A298 RMK A01 T03120205  RH  053%=      5-min Rain = 0
KST2 151632Z 20017KT 31/21 A298 RMK A01 T03120206  RH  053%=      5-min Rain = 0
KST2 151633Z 20016KT 31/21 A298 RMK A01 T03120206  RH  053%=      5-min Rain = 0
KST2 151634Z 20014KT 31/21 A298 RMK A01 T03130206  RH  053%=      5-min Rain = 0
KST2 151635Z 19017KT 32/21 A298 RMK A01 T03160208  RH  053%=      5-min Rain = 0
KST2 151636Z 18016KT 32/21 A298 RMK A01 T03170208  RH  053%=      5-min Rain = 0
KST2 151637Z 19018KT 32/21 A298 RMK A01 T03170208  RH  053%=      5-min Rain = 0
KST2 151638Z 19018KT 32/21 A298 RMK A01 T03170207  RH  052%=      5-min Rain = 0
KST2 151639Z 21016KT 32/21 A298 RMK A01 T03170206  RH  052%=      5-min Rain = 0
KST2 151640Z 20015KT 32/21 A298 RMK A01 T03160205  RH  052%=      5-min Rain = 0
KST2 151641Z 19018KT 32/21 A298 RMK A01 T03160205  RH  052%=      5-min Rain = 0
KST2 151642Z 19015KT 32/21 A298 RMK A01 T03160206  RH  052%=      5-min Rain = 0
KST2 151643Z 19018KT 32/21 A2979 RMK A01 T03190208  RH  052%=      5-min Rain = 0
KST2 151644Z 19018KT 32/21 A2979 RMK A01 T03200208  RH  052%=      5-min Rain = 0
KST2 151645Z 19018KT 32/21 A2979 RMK A01 T03200208  RH  052%=      5-min Rain = 0
KST2 151646Z 20019KT 32/21 A2979 RMK A01 T03180207  RH  052%=      5-min Rain = 0
KST2 151647Z 20016KT 32/21 A2979 RMK A01 T03190206  RH  051%=      5-min Rain = 0
KST2 151648Z 20019KT 32/21 A2979 RMK A01 T03200207  RH  051%=      5-min Rain = 0
KST2 151649Z 20017KT 32/21 A2979 RMK A01 T03210206  RH  051%=      5-min Rain = 0
KST2 151650Z 19015KT 32/21 A2979 RMK A01 T03210207  RH  051%=      5-min Rain = 0
KST2 151651Z 20016KT 32/21 A2979 RMK A01 T03220208  RH  051%=      5-min Rain = 0
KST2 151652Z 19016KT 32/21 A2979 RMK A01 T03220207  RH  051%=      5-min Rain = 0
KST2 151653Z 19018KT 32/21 A2979 RMK A01 T03210207  RH  051%=      5-min Rain = 0
KST2 151654Z 20019KT 32/21 A2979 RMK A01 T03220207  RH  051%=      5-min Rain = 0
KST2 151655Z 20016G21KT 32/21 A2979 RMK A01 T03230206  RH  050%=      5-min Rain = 0
KST2 151656Z 19021KT 32/21 A2979 RMK A01 T03230207  RH  050%=      5-min Rain = 0
KST2 151657Z 18018KT 32/21 A2979 RMK A01 T03210205  RH  050%=      5-min Rain = 0
KST2 151658Z 20016KT 32/21 A2979 RMK A01 T03190205  RH  051%=      5-min Rain = 0
KST2 151659Z 20016KT 32/21 A298 RMK A01 T03210205  RH  050%=      5-min Rain = 0
KST2 151700Z 19013KT 32/21 A2979 RMK A01 T03210205  RH  050%=      5-min Rain = 0
KST2 151701Z 18016G22KT 32/21 A2979 RMK A01 T03230208  RH  051%=      5-min Rain = 0
KST2 151702Z 19017KT 33/21 A2979 RMK A01 T03250209  RH  050%=      5-min Rain = 0
KST2 151703Z 20015KT 33/21 A298 RMK A01 T03260207  RH  050%=      5-min Rain = 0
KST2 151704Z 20016KT 33/21 A2979 RMK A01 T03250207  RH  050%=      5-min Rain = 0
KST2 151705Z 19016KT 33/21 A2979 RMK A01 T03250206  RH  049%=      5-min Rain = 0
KST2 151706Z 20016KT 33/21 A2979 RMK A01 T03250206  RH  050%=      5-min Rain = 0
KST2 151707Z 20017G23KT 32/21 A2979 RMK A01 T03240206  RH  050%=      5-min Rain = 0
KST2 151708Z 18016KT 33/21 A2979 RMK A01 T03250205  RH  049%=      5-min Rain = 0
KST2 151709Z 18018G23KT 33/21 A2979 RMK A01 T03250206  RH  050%=      5-min Rain = 0
KST2 151710Z 19018KT 33/21 A2979 RMK A01 T03250205  RH  049%=      5-min Rain = 0
KST2 151711Z 18021KT 33/20 A2979 RMK A01 T03250203  RH  049%=      5-min Rain = 0
KST2 151712Z 19017KT 32/20 A2979 RMK A01 T03240202  RH  049%=      5-min Rain = 0
KST2 151713Z 19018KT 32/20 A2979 RMK A01 T03230202  RH  049%=      5-min Rain = 0
KST2 151714Z 19015KT 32/20 A2979 RMK A01 T03230202  RH  049%=      5-min Rain = 0
KST2 151715Z 19015KT 32/20 A2979 RMK A01 T03230202  RH  049%=      5-min Rain = 0
KST2 151716Z 18016G22KT 33/20 A2979 RMK A01 T03250203  RH  049%=      5-min Rain = 0
KST2 151717Z 19019KT 33/20 A2979 RMK A01 T03250203  RH  049%=      5-min Rain = 0
KST2 151718Z 19018KT 33/20 A2979 RMK A01 T03260204  RH  048%=      5-min Rain = 0
KST2 151719Z 20016KT 33/20 A2979 RMK A01 T03270203  RH  048%=      5-min Rain = 0
KST2 151720Z 22017KT 33/20 A2979 RMK A01 T03280203  RH  048%=      5-min Rain = 0
KST2 151721Z 22016KT 33/20 A2979 RMK A01 T03300200  RH  046%=      5-min Rain = 0
KST2 151722Z 20015G21KT 33/20 A2979 RMK A01 T03300201  RH  047%=      5-min Rain = 0
KST2 151723Z 20018KT 33/20 A2979 RMK A01 T03300202  RH  047%=      5-min Rain = 0
KST2 151724Z 19017KT 33/20 A2979 RMK A01 T03310203  RH  047%=      5-min Rain = 0
KST2 151725Z 19021KT 33/20 A2979 RMK A01 T03320203  RH  047%=      5-min Rain = 0
KST2 151726Z 20016KT 33/20 A2979 RMK A01 T03330202  RH  046%=      5-min Rain = 0
KST2 151727Z 20017KT 33/20 A2979 RMK A01 T03330201  RH  046%=      5-min Rain = 0
KST2 151728Z 19016G21KT 33/20 A2979 RMK A01 T03320200  RH  046%=      5-min Rain = 0
KST2 151729Z 21017G22KT 33/20 A2979 RMK A01 T03320200  RH  046%=      5-min Rain = 0
KST2 151730Z 20014G20KT 33/20 A2979 RMK A01 T03330202  RH  046%=      5-min Rain = 0
KST2 151731Z 19018KT 33/21 A2979 RMK A01 T03340205  RH  047%=      5-min Rain = 0
KST2 151732Z 18018KT 33/21 A2979 RMK A01 T03330205  RH  047%=      5-min Rain = 0
KST2 151733Z 19019KT 33/21 A2979 RMK A01 T03310205  RH  047%=      5-min Rain = 0
KST2 151734Z 19018KT 33/20 A2979 RMK A01 T03300204  RH  048%=      5-min Rain = 0
KST2 151735Z 19018KT 33/20 A2979 RMK A01 T03290204  RH  048%=      5-min Rain = 0
KST2 151736Z 19017KT 33/20 A2979 RMK A01 T03280203  RH  048%=      5-min Rain = 0
KST2 151737Z 18016KT 33/20 A2979 RMK A01 T03290204  RH  048%=      5-min Rain = 0
KST2 151738Z 19018KT 33/20 A2979 RMK A01 T03280203  RH  048%=      5-min Rain = 0
KST2 151739Z 20019KT 33/20 A2979 RMK A01 T03280203  RH  048%=      5-min Rain = 0
KST2 151740Z 20017G22KT 33/20 A2979 RMK A01 T03280204  RH  048%=      5-min Rain = 0
KST2 151741Z 19018KT 33/21 A2979 RMK A01 T03290205  RH  048%=      5-min Rain = 0
KST2 151742Z 18019KT 33/21 A2979 RMK A01 T03320207  RH  048%=      5-min Rain = 0
KST2 151743Z 17021KT 33/21 A2979 RMK A01 T03320206  RH  048%=      5-min Rain = 0
KST2 151744Z 18015G20KT 33/21 A2979 RMK A01 T03300205  RH  048%=      5-min Rain = 0
KST2 151745Z 19014KT 33/21 A2979 RMK A01 T03280205  RH  048%=      5-min Rain = 0
KST2 151746Z 19014KT 33/21 A2979 RMK A01 T03300208  RH  049%=      5-min Rain = 0
KST2 151747Z 19013KT 33/21 A2979 RMK A01 T03320207  RH  048%=      5-min Rain = 0
KST2 151748Z 19018KT 33/21 A2979 RMK A01 T03310207  RH  048%=      5-min Rain = 0
KST2 151749Z 19015KT 33/21 A2979 RMK A01 T03310207  RH  048%=      5-min Rain = 0
KST2 151750Z 19018KT 33/21 A2979 RMK A01 T03310207  RH  048%=      5-min Rain = 0
KST2 151751Z 19018KT 33/21 A2978 RMK A01 T03310208  RH  048%=      5-min Rain = 0
KST2 151752Z 19019KT 33/21 A2979 RMK A01 T03310206  RH  048%=      5-min Rain = 0
KST2 151753Z 18016KT 33/21 A2979 RMK A01 T03300205  RH  048%=      5-min Rain = 0
KST2 151754Z 18018KT 33/21 A2978 RMK A01 T03300206  RH  048%=      5-min Rain = 0
KST2 151755Z 17017G22KT 33/21 A2978 RMK A01 T03310206  RH  048%=      5-min Rain = 0
KST2 151756Z 17014KT 33/21 A2978 RMK A01 T03310206  RH  048%=      5-min Rain = 0
KST2 151757Z 18018KT 33/21 A2978 RMK A01 T03300206  RH  048%=      5-min Rain = 0
KST2 151758Z 20018KT 33/21 A2978 RMK A01 T03300207  RH  049%=      5-min Rain = 0
KST2 151759Z 21019KT 33/21 A2979 RMK A01 T03320206  RH  048%=      5-min Rain = 0
KST2 151800Z 20015KT 33/21 A2979 RMK A01 T03320205  RH  047%=      5-min Rain = 0
KST2 151801Z 19017KT 33/21 A2979 RMK A01 T03310206  RH  048%=      5-min Rain = 0
KST2 151802Z 18020KT 33/21 A2979 RMK A01 T03310206  RH  048%=      5-min Rain = 0
KST2 151803Z 17015KT 33/21 A2979 RMK A01 T03310206  RH  048%=      5-min Rain = 0
KST2 151804Z 18018G23KT 33/21 A2978 RMK A01 T03300206  RH  048%=      5-min Rain = 0
KST2 151805Z 18018KT 33/21 A2978 RMK A01 T03310207  RH  048%=      5-min Rain = 0
KST2 151806Z 19019KT 33/21 A2978 RMK A01 T03310207  RH  048%=      5-min Rain = 0
KST2 151807Z 18017KT 33/21 A2978 RMK A01 T03310208  RH  048%=      5-min Rain = 0
KST2 151808Z 17016G21KT 33/21 A2978 RMK A01 T03320208  RH  048%=      5-min Rain = 0
KST2 151809Z 17018KT 33/21 A2978 RMK A01 T03320208  RH  048%=      5-min Rain = 0
KST2 151810Z 18016KT 33/21 A2978 RMK A01 T03320209  RH  048%=      5-min Rain = 0
KST2 151811Z 18017KT 33/21 A2978 RMK A01 T03330208  RH  048%=      5-min Rain = 0
KST2 151812Z 18019KT 34/21 A2978 RMK A01 T03350209  RH  048%=      5-min Rain = 0
KST2 151813Z 18017KT 34/21 A2978 RMK A01 T03370208  RH  047%=      5-min Rain = 0
KST2 151814Z 18016G21KT 34/21 A2978 RMK A01 T03360208  RH  047%=      5-min Rain = 0
KST2 151815Z 18016KT 34/21 A2978 RMK A01 T03350208  RH  048%=      5-min Rain = 0
KST2 151816Z 17019KT 34/21 A2978 RMK A01 T03350209  RH  048%=      5-min Rain = 0
KST2 151817Z 17015KT 34/21 A2978 RMK A01 T03360209  RH  047%=      5-min Rain = 0
KST2 151818Z 18016KT 34/21 A2978 RMK A01 T03360209  RH  047%=      5-min Rain = 0
KST2 151819Z 20018KT 34/21 A2978 RMK A01 T03360208  RH  047%=      5-min Rain = 0
KST2 151820Z 20015KT 34/21 A2978 RMK A01 T03360207  RH  047%=      5-min Rain = 0
KST2 151821Z 21016KT 33/21 A2978 RMK A01 T03340205  RH  047%=      5-min Rain = 0
KST2 151822Z 20013KT 33/20 A2978 RMK A01 T03330204  RH  047%=      5-min Rain = 0
KST2 151823Z 19014KT 33/20 A2978 RMK A01 T03320204  RH  047%=      5-min Rain = 0
KST2 151824Z 18014KT 33/20 A2978 RMK A01 T03330204  RH  047%=      5-min Rain = 0
KST2 151825Z 19016KT 33/20 A2978 RMK A01 T03310204  RH  047%=      5-min Rain = 0
KST2 151826Z 20013KT 33/20 A2978 RMK A01 T03310203  RH  047%=      5-min Rain = 0
KST2 151827Z 19015KT 33/20 A2978 RMK A01 T03310203  RH  047%=      5-min Rain = 0
KST2 151828Z 20016KT 33/20 A2978 RMK A01 T03310204  RH  047%=      5-min Rain = 0
KST2 151829Z 20018G23KT 33/21 A2978 RMK A01 T03330205  RH  047%=      5-min Rain = 0
KST2 151830Z 20015KT 33/21 A2978 RMK A01 T03330205  RH  047%=      5-min Rain = 0
KST2 151831Z 20016KT 33/21 A2978 RMK A01 T03340206  RH  047%=      5-min Rain = 0
KST2 151832Z 19016KT 33/21 A2978 RMK A01 T03340206  RH  047%=      5-min Rain = 0
KST2 151833Z 18014KT 33/21 A2978 RMK A01 T03340206  RH  047%=      5-min Rain = 0
KST2 151834Z 19015KT 33/21 A2978 RMK A01 T03340206  RH  047%=      5-min Rain = 0
KST2 151835Z 18017KT 33/21 A2978 RMK A01 T03340206  RH  047%=      5-min Rain = 0
KST2 151836Z 19015KT 33/21 A2978 RMK A01 T03330205  RH  047%=      5-min Rain = 0
KST2 151837Z 20017KT 33/21 A2978 RMK A01 T03330205  RH  047%=      5-min Rain = 0
KST2 151838Z 20017KT 33/20 A2978 RMK A01 T03330203  RH  046%=      5-min Rain = 0
KST2 151839Z 22015KT 33/20 A2978 RMK A01 T03340200  RH  046%=      5-min Rain = 0
KST2 151840Z 21014KT 33/20 A2978 RMK A01 T03340200  RH  045%=      5-min Rain = 0
KST2 151841Z 20015KT 34/20 A2978 RMK A01 T03350200  RH  045%=      5-min Rain = 0
KST2 151842Z 19016KT 34/20 A2978 RMK A01 T03370200  RH  045%=      5-min Rain = 0
KST2 151843Z 19012KT 34/20 A2978 RMK A01 T03370200  RH  045%=      5-min Rain = 0
KST2 151844Z 20015KT 34/20 A2978 RMK A01 T03380201  RH  045%=      5-min Rain = 0
KST2 151845Z 20013KT 34/20 A2978 RMK A01 T03400202  RH  045%=      5-min Rain = 0
KST2 151846Z 18015KT 34/20 A2977 RMK A01 T03400203  RH  045%=      5-min Rain = 0
KST2 151847Z 20015G20KT 34/20 A2977 RMK A01 T03400204  RH  045%=      5-min Rain = 0
KST2 151848Z 21018KT 34/20 A2977 RMK A01 T03420204  RH  045%=      5-min Rain = 0
KST2 151849Z 21015KT 34/20 A2977 RMK A01 T03440201  RH  043%=      5-min Rain = 0
KST2 151850Z 20016KT 34/20 A2977 RMK A01 T03440202  RH  043%=      5-min Rain = 0
KST2 151851Z 20014KT 34/20 A2977 RMK A01 T03440203  RH  044%=      5-min Rain = 0
KST2 151852Z 20015KT 35/20 A2977 RMK A01 T03450203  RH  044%=      5-min Rain = 0
KST2 151853Z 20014KT 35/20 A2977 RMK A01 T03450203  RH  044%=      5-min Rain = 0
KST2 151854Z 17014KT 34/21 A2977 RMK A01 T03440205  RH  044%=      5-min Rain = 0
KST2 151855Z 18012KT 35/21 A2977 RMK A01 T03450206  RH  044%=      5-min Rain = 0
KST2 151856Z 19013KT 35/21 A2977 RMK A01 T03460206  RH  044%=      5-min Rain = 0
KST2 151857Z 18016KT 35/21 A2977 RMK A01 T03460206  RH  044%=      5-min Rain = 0
KST2 151858Z 18018KT 35/21 A2977 RMK A01 T03450207  RH  044%=      5-min Rain = 0
KST2 151859Z 18018KT 35/21 A2977 RMK A01 T03460206  RH  044%=      5-min Rain = 0
KST2 151900Z 18017KT 35/21 A2977 RMK A01 T03460207  RH  044%=      5-min Rain = 0
KST2 151901Z 19016KT 35/21 A2977 RMK A01 T03460205  RH  044%=      5-min Rain = 0
KST2 151902Z 19013KT 35/20 A2977 RMK A01 T03450203  RH  043%=      5-min Rain = 0
KST2 151903Z 19016KT 34/20 A2977 RMK A01 T03440203  RH  044%=      5-min Rain = 0
KST2 151904Z 20016KT 34/20 A2977 RMK A01 T03440203  RH  044%=      5-min Rain = 0
KST2 151905Z 19015KT 35/20 A2977 RMK A01 T03460203  RH  043%=      5-min Rain = 0
KST2 151906Z 19017KT 35/21 A2977 RMK A01 T03460205  RH  044%=      5-min Rain = 0
KST2 151907Z 18016KT 35/21 A2977 RMK A01 T03460205  RH  044%=      5-min Rain = 0
KST2 151908Z 19015KT 35/20 A2977 RMK A01 T03450204  RH  044%=      5-min Rain = 0
KST2 151909Z 17015G20KT 34/21 A2976 RMK A01 T03440205  RH  044%=      5-min Rain = 0
KST2 151910Z 18019KT 35/21 A2976 RMK A01 T03450206  RH  044%=      5-min Rain = 0
KST2 151911Z 19017KT 35/20 A2976 RMK A01 T03470204  RH  043%=      5-min Rain = 0
KST2 151912Z 19013KT 35/21 A2977 RMK A01 T03480205  RH  043%=      5-min Rain = 0
KST2 151913Z 19012KT 35/21 A2977 RMK A01 T03490205  RH  043%=      5-min Rain = 0
KST2 151914Z 18017KT 35/21 A2976 RMK A01 T03490207  RH  043%=      5-min Rain = 0
KST2 151915Z 18020KT 35/21 A2976 RMK A01 T03490206  RH  043%=      5-min Rain = 0
KST2 151916Z 17015KT 35/21 A2976 RMK A01 T03480205  RH  043%=      5-min Rain = 0
KST2 151917Z 17012KT 35/21 A2976 RMK A01 T03470205  RH  044%=      5-min Rain = 0
KST2 151918Z 17016KT 35/21 A2976 RMK A01 T03480208  RH  044%=      5-min Rain = 0
KST2 151919Z 19017KT 35/21 A2976 RMK A01 T03500208  RH  044%=      5-min Rain = 0
KST2 151920Z 19015KT 35/21 A2976 RMK A01 T03500208  RH  044%=      5-min Rain = 0
KST2 151921Z 19019KT 35/21 A2976 RMK A01 T03500208  RH  044%=      5-min Rain = 0
KST2 151922Z 18015KT 35/21 A2976 RMK A01 T03510208  RH  044%=      5-min Rain = 0
KST2 151923Z 22014KT 35/21 A2976 RMK A01 T03530208  RH  043%=      5-min Rain = 0
KST2 151924Z 21017KT 36/21 A2976 RMK A01 T03560207  RH  042%=      5-min Rain = 0
KST2 151925Z 21016KT 36/21 A2976 RMK A01 T03570206  RH  041%=      5-min Rain = 0
KST2 151926Z 21018KT 36/20 A2976 RMK A01 T03570204  RH  041%=      5-min Rain = 0
KST2 151927Z 21015KT 36/20 A2976 RMK A01 T03550201  RH  041%=      5-min Rain = 0
KST2 151928Z 19013KT 35/20 A2976 RMK A01 T03540202  RH  041%=      5-min Rain = 0
KST2 151929Z 20016KT 36/21 A2976 RMK A01 T03550205  RH  042%=      5-min Rain = 0
KST2 151930Z 19017KT 36/21 A2976 RMK A01 T03570206  RH  041%=      5-min Rain = 0
KST2 151931Z 20019KT 36/21 A2976 RMK A01 T03580205  RH  041%=      5-min Rain = 0
KST2 151932Z 19019KT 36/20 A2976 RMK A01 T03560204  RH  041%=      5-min Rain = 0
KST2 151933Z 18018KT 36/20 A2976 RMK A01 T03550202  RH  041%=      5-min Rain = 0
KST2 151934Z 18019KT 35/20 A2976 RMK A01 T03530201  RH  041%=      5-min Rain = 0
KST2 151935Z 18018KT 35/20 A2976 RMK A01 T03520201  RH  041%=      5-min Rain = 0
KST2 151936Z 18017KT 35/20 A2976 RMK A01 T03510202  RH  042%=      5-min Rain = 0
KST2 151937Z 17015KT 35/20 A2976 RMK A01 T03510200  RH  041%=      5-min Rain = 0
KST2 151938Z 17018KT 35/20 A2976 RMK A01 T03490200  RH  042%=      5-min Rain = 0
KST2 151939Z 17020KT 35/20 A2976 RMK A01 T03490199  RH  041%=      5-min Rain = 0
KST2 151940Z 20016KT 35/20 A2976 RMK A01 T03500201  RH  042%=      5-min Rain = 0
KST2 151941Z 21017KT 35/20 A2976 RMK A01 T03540202  RH  041%=      5-min Rain = 0
KST2 151942Z 20015KT 35/20 A2976 RMK A01 T03540201  RH  041%=      5-min Rain = 0
KST2 151943Z 21016KT 35/20 A2976 RMK A01 T03540202  RH  041%=      5-min Rain = 0
KST2 151944Z 18016KT 35/20 A2976 RMK A01 T03540201  RH  041%=      5-min Rain = 0
KST2 151945Z 19018KT 35/20 A2976 RMK A01 T03540202  RH  041%=      5-min Rain = 0
KST2 151946Z 18017KT 35/20 A2976 RMK A01 T03540202  RH  041%=      5-min Rain = 0
KST2 151947Z 18016KT 35/20 A2976 RMK A01 T03540202  RH  041%=      5-min Rain = 0
KST2 151948Z 18015KT 35/20 A2976 RMK A01 T03540202  RH  041%=      5-min Rain = 0
KST2 151949Z 18015KT 36/20 A2976 RMK A01 T03550204  RH  042%=      5-min Rain = 0
KST2 151950Z 17017KT 36/20 A2976 RMK A01 T03570204  RH  041%=      5-min Rain = 0
KST2 151951Z 17016G21KT 36/20 A2976 RMK A01 T03560203  RH  041%=      5-min Rain = 0
KST2 151952Z 17013G19KT 35/20 A2976 RMK A01 T03540202  RH  041%=      5-min Rain = 0
KST2 151953Z 18019KT 35/20 A2975 RMK A01 T03530201  RH  041%=      5-min Rain = 0
KST2 151954Z 18018G23KT 35/20 A2975 RMK A01 T03520201  RH  041%=      5-min Rain = 0
KST2 151955Z 18017KT 35/20 A2976 RMK A01 T03520201  RH  041%=      5-min Rain = 0
KST2 151956Z 18014KT 35/20 A2976 RMK A01 T03510200  RH  041%=      5-min Rain = 0
KST2 151957Z 18013KT 35/20 A2976 RMK A01 T03510200  RH  041%=      5-min Rain = 0
KST2 151958Z 19017KT 35/20 A2976 RMK A01 T03520202  RH  042%=      5-min Rain = 0
KST2 151959Z 19015KT 35/20 A2976 RMK A01 T03530199  RH  041%=      5-min Rain = 0
KST2 152000Z 19018KT 35/20 A2976 RMK A01 T03530199  RH  041%=      5-min Rain = 0
KST2 152001Z 19019KT 35/20 A2976 RMK A01 T03530199  RH  041%=      5-min Rain = 0
KST2 152002Z 20015KT 35/20 A2976 RMK A01 T03530198  RH  040%=      5-min Rain = 0
KST2 152003Z 20013KT 35/20 A2976 RMK A01 T03520198  RH  040%=      5-min Rain = 0
KST2 152004Z 21014G19KT 35/20 A2976 RMK A01 T03530199  RH  041%=      5-min Rain = 0
KST2 152005Z 20017G22KT 36/20 A2976 RMK A01 T03550201  RH  041%=      5-min Rain = 0
KST2 152006Z 20014G19KT 36/20 A2976 RMK A01 T03560201  RH  040%=      5-min Rain = 0
KST2 152007Z 18019KT 36/20 A2976 RMK A01 T03560202  RH  041%=      5-min Rain = 0
KST2 152008Z 18018KT 36/20 A2976 RMK A01 T03560201  RH  040%=      5-min Rain = 0
KST2 152009Z 18017KT 36/20 A2976 RMK A01 T03560201  RH  040%=      5-min Rain = 0
KST2 152010Z 17014KT 36/20 A2976 RMK A01 T03550200  RH  041%=      5-min Rain = 0
KST2 152011Z 17016KT 36/20 A2976 RMK A01 T03550201  RH  041%=      5-min Rain = 0
KST2 152012Z 17016KT 36/20 A2976 RMK A01 T03560200  RH  040%=      5-min Rain = 0
KST2 152013Z 18015KT 36/20 A2976 RMK A01 T03550200  RH  041%=      5-min Rain = 0
KST2 152014Z 17017KT 35/20 A2975 RMK A01 T03540201  RH  041%=      5-min Rain = 0
KST2 152015Z 17013KT 35/20 A2976 RMK A01 T03540201  RH  041%=      5-min Rain = 0
KST2 152016Z 19018G24KT 36/20 A2976 RMK A01 T03550201  RH  041%=      5-min Rain = 0
KST2 152017Z 18018KT 36/20 A2976 RMK A01 T03550199  RH  040%=      5-min Rain = 0
KST2 152018Z 18012KT 35/20 A2976 RMK A01 T03540197  RH  040%=      5-min Rain = 0
KST2 152019Z 19011KT 35/20 A2976 RMK A01 T03520198  RH  041%=      5-min Rain = 0
KST2 152020Z 17012KT 35/20 A2976 RMK A01 T03520199  RH  041%=      5-min Rain = 0
KST2 152021Z 16015KT 35/20 A2976 RMK A01 T03530200  RH  041%=      5-min Rain = 0
KST2 152022Z 16016G21KT 35/20 A2976 RMK A01 T03540201  RH  041%=      5-min Rain = 0
KST2 152023Z 19015KT 36/20 A2976 RMK A01 T03550202  RH  041%=      5-min Rain = 0
KST2 152024Z 19015KT 36/20 A2976 RMK A01 T03560201  RH  040%=      5-min Rain = 0
KST2 152025Z 18018KT 36/20 A2976 RMK A01 T03570203  RH  041%=      5-min Rain = 0
KST2 152026Z 18015KT 36/20 A2976 RMK A01 T03580202  RH  040%=      5-min Rain = 0
KST2 152027Z 18019KT 36/20 A2975 RMK A01 T03560202  RH  040%=      5-min Rain = 0
KST2 152028Z 19017KT 36/20 A2976 RMK A01 T03560201  RH  040%=      5-min Rain = 0
KST2 152029Z 19016KT 36/20 A2976 RMK A01 T03570201  RH  040%=      5-min Rain = 0
KST2 152030Z 19014KT 36/20 A2976 RMK A01 T03560200  RH  040%=      5-min Rain = 0
KST2 152031Z 19016KT 36/20 A2976 RMK A01 T03550199  RH  040%=      5-min Rain = 0
KST2 152032Z 18016KT 35/20 A2976 RMK A01 T03540199  RH  040%=      5-min Rain = 0
KST2 152033Z 17014KT 35/20 A2975 RMK A01 T03540199  RH  040%=      5-min Rain = 0
KST2 152034Z 18014KT 35/20 A2975 RMK A01 T03530198  RH  040%=      5-min Rain = 0
KST2 152035Z 19014KT 35/20 A2975 RMK A01 T03530199  RH  041%=      5-min Rain = 0
KST2 152036Z 19013KT 35/20 A2975 RMK A01 T03530200  RH  041%=      5-min Rain = 0
KST2 152037Z 18016G21KT 36/20 A2975 RMK A01 T03550201  RH  041%=      5-min Rain = 0
KST2 152038Z 18014KT 36/20 A2975 RMK A01 T03550200  RH  040%=      5-min Rain = 0
KST2 152039Z 17015G20KT 36/20 A2975 RMK A01 T03560201  RH  040%=      5-min Rain = 0
KST2 152040Z 17016G21KT 36/20 A2975 RMK A01 T03570202  RH  040%=      5-min Rain = 0
KST2 152041Z 18016KT 36/20 A2975 RMK A01 T03580201  RH  040%=      5-min Rain = 0
KST2 152042Z 17018KT 36/20 A2975 RMK A01 T03580201  RH  040%=      5-min Rain = 0
KST2 152043Z 16017KT 36/20 A2975 RMK A01 T03580201  RH  040%=      5-min Rain = 0
KST2 152044Z 16017KT 36/20 A2975 RMK A01 T03580201  RH  040%=      5-min Rain = 0
KST2 152045Z 18013KT 36/20 A2975 RMK A01 T03590202  RH  040%=      5-min Rain = 0
KST2 152046Z 19013KT 36/20 A2975 RMK A01 T03610202  RH  040%=      5-min Rain = 0
KST2 152047Z 19014KT 36/20 A2975 RMK A01 T03600202  RH  040%=      5-min Rain = 0
KST2 152048Z 18019KT 36/20 A2975 RMK A01 T03590201  RH  040%=      5-min Rain = 0
KST2 152049Z 17014KT 36/20 A2975 RMK A01 T03600199  RH  039%=      5-min Rain = 0
KST2 152050Z 18014KT 36/20 A2975 RMK A01 T03590199  RH  039%=      5-min Rain = 0
KST2 152051Z 17015KT 36/20 A2975 RMK A01 T03580199  RH  039%=      5-min Rain = 0
KST2 152052Z 17015KT 36/20 A2975 RMK A01 T03580200  RH  040%=      5-min Rain = 0
KST2 152053Z 19013KT 36/20 A2975 RMK A01 T03600201  RH  040%=      5-min Rain = 0
KST2 152054Z 16016KT 36/20 A2975 RMK A01 T03620204  RH  040%=      5-min Rain = 0
KST2 152055Z 16018KT 36/21 A2974 RMK A01 T03630205  RH  040%=      5-min Rain = 0
KST2 152056Z 16018KT 36/21 A2974 RMK A01 T03620206  RH  040%=      5-min Rain = 0
KST2 152057Z 15015G20KT 36/20 A2974 RMK A01 T03590204  RH  041%=      5-min Rain = 0
KST2 152058Z 17013KT 36/21 A2974 RMK A01 T03590207  RH  041%=      5-min Rain = 0
KST2 152059Z 17018KT 36/21 A2974 RMK A01 T03620208  RH  041%=      5-min Rain = 0
KST2 152100Z 16015G20KT 36/21 A2974 RMK A01 T03610206  RH  040%=      5-min Rain = 0
KST2 152101Z 17016G21KT 36/21 A2974 RMK A01 T03600205  RH  041%=      5-min Rain = 0
KST2 152102Z 17016KT 36/21 A2974 RMK A01 T03590205  RH  041%=      5-min Rain = 0
KST2 152103Z 17016KT 36/20 A2974 RMK A01 T03590204  RH  041%=      5-min Rain = 0
KST2 152104Z 16013KT 36/21 A2974 RMK A01 T03590206  RH  041%=      5-min Rain = 0
KST2 152105Z 17013KT 36/21 A2975 RMK A01 T03590208  RH  041%=      5-min Rain = 0
KST2 152106Z 18013KT 36/21 A2975 RMK A01 T03610209  RH  041%=      5-min Rain = 0
KST2 152107Z 18013KT 36/21 A2974 RMK A01 T03630208  RH  041%=      5-min Rain = 0
KST2 152108Z 17014KT 36/21 A2974 RMK A01 T03610208  RH  041%=      5-min Rain = 0
KST2 152109Z 16012KT 36/21 A2974 RMK A01 T03610207  RH  041%=      5-min Rain = 0
KST2 152110Z 16012KT 36/21 A2974 RMK A01 T03600208  RH  041%=      5-min Rain = 0
KST2 152111Z 16015G21KT 36/21 A2974 RMK A01 T03610210  RH  041%=      5-min Rain = 0
KST2 152112Z 16020KT 36/21 A2974 RMK A01 T03630209  RH  041%=      5-min Rain = 0
KST2 152113Z 16017KT 36/21 A2974 RMK A01 T03620207  RH  041%=      5-min Rain = 0
KST2 152114Z 15016KT 36/21 A2974 RMK A01 T03600207  RH  041%=      5-min Rain = 0
KST2 152115Z 16016KT 36/21 A2974 RMK A01 T03590208  RH  041%=      5-min Rain = 0
KST2 152116Z 17018KT 36/21 A2974 RMK A01 T03600208  RH  041%=      5-min Rain = 0
KST2 152117Z 16018KT 36/21 A2974 RMK A01 T03600209  RH  041%=      5-min Rain = 0
KST2 152118Z 16016KT 36/21 A2974 RMK A01 T03590208  RH  041%=      5-min Rain = 0
KST2 152119Z 15014G19KT 36/21 A2974 RMK A01 T03580208  RH  042%=      5-min Rain = 0
KST2 152120Z 17019KT 36/21 A2974 RMK A01 T03570208  RH  042%=      5-min Rain = 0
KST2 152121Z 16020KT 36/21 A2974 RMK A01 T03580209  RH  042%=      5-min Rain = 0
KST2 152122Z 17019KT 36/21 A2974 RMK A01 T03590208  RH  042%=      5-min Rain = 0
KST2 152123Z 16018KT 36/21 A2974 RMK A01 T03580208  RH  042%=      5-min Rain = 0
KST2 152124Z 17017KT 36/21 A2974 RMK A01 T03590209  RH  042%=      5-min Rain = 0
KST2 152125Z 16016KT 36/21 A2974 RMK A01 T03590209  RH  042%=      5-min Rain = 0
KST2 152126Z 16018KT 36/21 A2974 RMK A01 T03580209  RH  042%=      5-min Rain = 0
KST2 152127Z 17017KT 36/21 A2974 RMK A01 T03580209  RH  042%=      5-min Rain = 0
KST2 152128Z 17016KT 36/21 A2974 RMK A01 T03590210  RH  042%=      5-min Rain = 0
KST2 152129Z 17017KT 36/21 A2974 RMK A01 T03590210  RH  042%=      5-min Rain = 0
KST2 152130Z 16016KT 36/21 A2974 RMK A01 T03580209  RH  042%=      5-min Rain = 0
KST2 152131Z 15019KT 36/21 A2974 RMK A01 T03570209  RH  042%=      5-min Rain = 0
KST2 152132Z 15019KT 36/21 A2974 RMK A01 T03580209  RH  042%=      5-min Rain = 0
KST2 152133Z 15018G23KT 36/21 A2973 RMK A01 T03580208  RH  042%=      5-min Rain = 0
KST2 152134Z 15018KT 36/21 A2973 RMK A01 T03570209  RH  042%=      5-min Rain = 0
KST2 152135Z 15020KT 36/21 A2973 RMK A01 T03580209  RH  042%=      5-min Rain = 0
KST2 152136Z 17016KT 36/21 A2973 RMK A01 T03590210  RH  042%=      5-min Rain = 0
KST2 152137Z 16017KT 36/21 A2973 RMK A01 T03600210  RH  042%=      5-min Rain = 0
KST2 152138Z 16014KT 36/21 A2973 RMK A01 T03600210  RH  042%=      5-min Rain = 0
KST2 152139Z 17015G21KT 36/21 A2973 RMK A01 T03600211  RH  042%=      5-min Rain = 0
KST2 152140Z 17018KT 36/21 A2973 RMK A01 T03610211  RH  042%=      5-min Rain = 0
KST2 152141Z 17018G23KT 36/21 A2973 RMK A01 T03600211  RH  042%=      5-min Rain = 0
KST2 152142Z 17020KT 36/21 A2973 RMK A01 T03600211  RH  042%=      5-min Rain = 0
KST2 152143Z 18018KT 36/21 A2973 RMK A01 T03610211  RH  042%=      5-min Rain = 0
KST2 152144Z 16019KT 36/21 A2973 RMK A01 T03610211  RH  042%=      5-min Rain = 0
KST2 152145Z 17019KT 36/21 A2973 RMK A01 T03600210  RH  042%=      5-min Rain = 0
KST2 152146Z 17013KT 36/21 A2973 RMK A01 T03590210  RH  042%=      5-min Rain = 0
KST2 152147Z 17020KT 36/21 A2973 RMK A01 T03590211  RH  042%=      5-min Rain = 0
KST2 152148Z 16020KT 36/21 A2973 RMK A01 T03590210  RH  042%=      5-min Rain = 0
KST2 152149Z 16019KT 36/21 A2973 RMK A01 T03590210  RH  042%=      5-min Rain = 0
KST2 152150Z 16018KT 36/21 A2973 RMK A01 T03580210  RH  042%=      5-min Rain = 0
KST2 152151Z 16020KT 36/21 A2973 RMK A01 T03580210  RH  042%=      5-min Rain = 0
KST2 152152Z 17019G25KT 36/21 A2973 RMK A01 T03580211  RH  042%=      5-min Rain = 0
KST2 152153Z 16019KT 36/21 A2973 RMK A01 T03590210  RH  042%=      5-min Rain = 0
KST2 152154Z 16020KT 36/21 A2973 RMK A01 T03590211  RH  042%=      5-min Rain = 0
KST2 152155Z 16020KT 36/21 A2973 RMK A01 T03580210  RH  042%=      5-min Rain = 0
KST2 152156Z 16019KT 36/21 A2973 RMK A01 T03580210  RH  042%=      5-min Rain = 0
KST2 152157Z 16020G25KT 36/21 A2973 RMK A01 T03570209  RH  042%=      5-min Rain = 0
KST2 152158Z 16018KT 36/21 A2973 RMK A01 T03560209  RH  042%=      5-min Rain = 0
KST2 152159Z 16018G23KT 36/21 A2973 RMK A01 T03570210  RH  043%=      5-min Rain = 0
KST2 152200Z 16019G24KT 36/21 A2973 RMK A01 T03580210  RH  042%=      5-min Rain = 0
KST2 152201Z 16014KT 36/21 A2973 RMK A01 T03580211  RH  043%=      5-min Rain = 0
KST2 152202Z 16018KT 36/21 A2973 RMK A01 T03580211  RH  043%=      5-min Rain = 0
KST2 152203Z 17019KT 36/21 A2973 RMK A01 T03580210  RH  042%=      5-min Rain = 0
KST2 152204Z 16019KT 36/21 A2973 RMK A01 T03560210  RH  043%=      5-min Rain = 0
KST2 152205Z 16016KT 36/21 A2973 RMK A01 T03550209  RH  043%=      5-min Rain = 0
KST2 152206Z 16020KT 35/21 A2973 RMK A01 T03540209  RH  043%=      5-min Rain = 0
KST2 152207Z 17017KT 35/21 A2973 RMK A01 T03540209  RH  043%=      5-min Rain = 0
KST2 152208Z 16020G25KT 35/21 A2972 RMK A01 T03540210  RH  043%=      5-min Rain = 0
KST2 152209Z 16020KT 36/21 A2972 RMK A01 T03550209  RH  043%=      5-min Rain = 0
KST2 152210Z 15021KT 35/21 A2972 RMK A01 T03540208  RH  043%=      5-min Rain = 0
KST2 152211Z 15019KT 35/21 A2972 RMK A01 T03520207  RH  043%=      5-min Rain = 0
KST2 152212Z 15015KT 35/21 A2972 RMK A01 T03520208  RH  043%=      5-min Rain = 0
KST2 152213Z 16017KT 35/21 A2972 RMK A01 T03520208  RH  043%=      5-min Rain = 0
KST2 152214Z 16018KT 35/21 A2972 RMK A01 T03530209  RH  043%=      5-min Rain = 0
KST2 152215Z 15019KT 35/21 A2972 RMK A01 T03540210  RH  043%=      5-min Rain = 0
KST2 152216Z 16019KT 35/21 A2972 RMK A01 T03540210  RH  043%=      5-min Rain = 0
KST2 152217Z 16017G24KT 36/21 A2972 RMK A01 T03550210  RH  043%=      5-min Rain = 0
KST2 152218Z 17022KT 36/21 A2972 RMK A01 T03550210  RH  043%=      5-min Rain = 0
KST2 152219Z 17020KT 36/21 A2972 RMK A01 T03560210  RH  043%=      5-min Rain = 0
KST2 152220Z 17021KT 36/21 A2972 RMK A01 T03550211  RH  043%=      5-min Rain = 0
KST2 152221Z 17019KT 36/21 A2972 RMK A01 T03550210  RH  043%=      5-min Rain = 0
KST2 152222Z 17016KT 36/21 A2972 RMK A01 T03550210  RH  043%=      5-min Rain = 0
KST2 152223Z 16018KT 36/21 A2972 RMK A01 T03550211  RH  043%=      5-min Rain = 0
KST2 152224Z 15019KT 36/21 A2972 RMK A01 T03560211  RH  043%=      5-min Rain = 0
KST2 152225Z 15020KT 36/21 A2972 RMK A01 T03560212  RH  043%=      5-min Rain = 0
KST2 152226Z 16019KT 36/21 A2972 RMK A01 T03570212  RH  043%=      5-min Rain = 0
KST2 152227Z 16018KT 36/21 A2972 RMK A01 T03580214  RH  043%=      5-min Rain = 0
KST2 152228Z 16016KT 36/22 A2972 RMK A01 T03590215  RH  043%=      5-min Rain = 0
KST2 152229Z 17017G22KT 36/22 A2972 RMK A01 T03620216  RH  043%=      5-min Rain = 0
KST2 152230Z 17017KT 36/22 A2972 RMK A01 T03630216  RH  043%=      5-min Rain = 0
KST2 152231Z 17019KT 36/22 A2972 RMK A01 T03620216  RH  043%=      5-min Rain = 0
KST2 152232Z 17020G25KT 36/21 A2972 RMK A01 T03620214  RH  042%=      5-min Rain = 0
KST2 152233Z 16019KT 36/21 A2972 RMK A01 T03600213  RH  043%=      5-min Rain = 0
KST2 152234Z 16019G24KT 36/21 A2972 RMK A01 T03600213  RH  042%=      5-min Rain = 0
KST2 152235Z 16021KT 36/21 A2972 RMK A01 T03610212  RH  042%=      5-min Rain = 0
KST2 152236Z 17019KT 36/21 A2972 RMK A01 T03600211  RH  042%=      5-min Rain = 0
KST2 152237Z 17019KT 36/21 A2972 RMK A01 T03580210  RH  042%=      5-min Rain = 0
KST2 152238Z 17020KT 36/21 A2971 RMK A01 T03560208  RH  042%=      5-min Rain = 0
KST2 152239Z 17019KT 36/21 A2972 RMK A01 T03550208  RH  043%=      5-min Rain = 0
KST2 152240Z 16017KT 36/21 A2972 RMK A01 T03550209  RH  043%=      5-min Rain = 0
KST2 152241Z 16018G23KT 36/21 A2972 RMK A01 T03550209  RH  043%=      5-min Rain = 0
KST2 152242Z 16021KT 36/21 A2971 RMK A01 T03560210  RH  043%=      5-min Rain = 0
KST2 152243Z 16020KT 36/21 A2971 RMK A01 T03560209  RH  043%=      5-min Rain = 0
KST2 152244Z 17019KT 36/21 A2971 RMK A01 T03560210  RH  043%=      5-min Rain = 0
KST2 152245Z 17021KT 36/21 A2971 RMK A01 T03560210  RH  043%=      5-min Rain = 0
KST2 152246Z 16020KT 36/21 A2971 RMK A01 T03570211  RH  043%=      5-min Rain = 0
KST2 152247Z 16018KT 36/21 A2971 RMK A01 T03570211  RH  043%=      5-min Rain = 0
KST2 152248Z 16018KT 36/21 A2971 RMK A01 T03560211  RH  043%=      5-min Rain = 0
KST2 152249Z 16016G24KT 36/21 A2971 RMK A01 T03570213  RH  043%=      5-min Rain = 0
KST2 152250Z 16018G23KT 36/21 A2971 RMK A01 T03590214  RH  043%=      5-min Rain = 0
KST2 152251Z 16016KT 36/21 A2971 RMK A01 T03580214  RH  043%=      5-min Rain = 0
KST2 152252Z 16020KT 36/21 A2971 RMK A01 T03580213  RH  043%=      5-min Rain = 0
KST2 152253Z 17020KT 36/21 A2971 RMK A01 T03570212  RH  043%=      5-min Rain = 0
KST2 152254Z 17021KT 36/21 A2971 RMK A01 T03560211  RH  043%=      5-min Rain = 0
KST2 152255Z 17021KT 36/21 A2971 RMK A01 T03550212  RH  043%=      5-min Rain = 0
KST2 152256Z 16019KT 36/21 A2971 RMK A01 T03550211  RH  043%=      5-min Rain = 0
KST2 152257Z 17018KT 36/21 A2971 RMK A01 T03550211  RH  043%=      5-min Rain = 0
KST2 152258Z 17016G21KT 36/21 A2971 RMK A01 T03550212  RH  043%=      5-min Rain = 0
KST2 152259Z 16015KT 36/21 A2971 RMK A01 T03560212  RH  043%=      5-min Rain = 0
KST2 152300Z 15017G24KT 36/21 A2971 RMK A01 T03570212  RH  043%=      5-min Rain = 0
KST2 152301Z 16020KT 36/21 A2971 RMK A01 T03570213  RH  043%=      5-min Rain = 0
KST2 152302Z 16019KT 36/21 A2971 RMK A01 T03560213  RH  044%=      5-min Rain = 0
KST2 152303Z 16018KT 36/21 A2971 RMK A01 T03550213  RH  044%=      5-min Rain = 0
KST2 152304Z 17020KT 35/21 A2971 RMK A01 T03540213  RH  044%=      5-min Rain = 0
KST2 152305Z 16019KT 35/21 A2971 RMK A01 T03530212  RH  044%=      5-min Rain = 0
KST2 152306Z 16021G26KT 35/21 A2971 RMK A01 T03530212  RH  044%=      5-min Rain = 0
KST2 152307Z 16019KT 35/21 A2971 RMK A01 T03520211  RH  044%=      5-min Rain = 0
KST2 152308Z 16017KT 35/21 A2971 RMK A01 T03510211  RH  044%=      5-min Rain = 0
KST2 152309Z 15020KT 35/21 A297 RMK A01 T03510213  RH  045%=      5-min Rain = 0
KST2 152310Z 16019G24KT 35/21 A297 RMK A01 T03520213  RH  045%=      5-min Rain = 0
KST2 152311Z 16020KT 35/21 A297 RMK A01 T03520213  RH  044%=      5-min Rain = 0
KST2 152312Z 16018KT 35/21 A297 RMK A01 T03520214  RH  045%=      5-min Rain = 0
KST2 152313Z 16019KT 35/21 A297 RMK A01 T03530214  RH  044%=      5-min Rain = 0
KST2 152314Z 16019KT 35/21 A297 RMK A01 T03530213  RH  044%=      5-min Rain = 0
KST2 152315Z 16018KT 35/21 A297 RMK A01 T03520213  RH  044%=      5-min Rain = 0
KST2 152316Z 16018KT 35/21 A297 RMK A01 T03520213  RH  044%=      5-min Rain = 0
KST2 152317Z 15016KT 35/21 A297 RMK A01 T03510213  RH  045%=      5-min Rain = 0
KST2 152318Z 16016KT 35/21 A297 RMK A01 T03510214  RH  045%=      5-min Rain = 0
KST2 152319Z 16017KT 35/21 A297 RMK A01 T03520214  RH  045%=      5-min Rain = 0
KST2 152320Z 16017KT 35/22 A297 RMK A01 T03520215  RH  045%=      5-min Rain = 0
KST2 152321Z 16018KT 35/22 A297 RMK A01 T03520215  RH  045%=      5-min Rain = 0
KST2 152322Z 16020KT 35/22 A297 RMK A01 T03530215  RH  045%=      5-min Rain = 0
KST2 152323Z 16017KT 35/21 A297 RMK A01 T03520214  RH  045%=      5-min Rain = 0
KST2 152324Z 16021KT 35/21 A297 RMK A01 T03510214  RH  045%=      5-min Rain = 0
KST2 152325Z 16021KT 35/21 A297 RMK A01 T03510214  RH  045%=      5-min Rain = 0
KST2 152326Z 16019KT 35/21 A297 RMK A01 T03500213  RH  045%=      5-min Rain = 0
KST2 152327Z 16019KT 35/21 A297 RMK A01 T03500213  RH  045%=      5-min Rain = 0
KST2 152328Z 16017KT 35/21 A297 RMK A01 T03490212  RH  045%=      5-min Rain = 0
KST2 152329Z 16019G24KT 35/21 A2969 RMK A01 T03490213  RH  045%=      5-min Rain = 0
KST2 152330Z 16020KT 35/21 A2969 RMK A01 T03490213  RH  045%=      5-min Rain = 0
KST2 152331Z 17019KT 35/21 A2969 RMK A01 T03480212  RH  045%=      5-min Rain = 0
KST2 152332Z 17019KT 35/21 A2969 RMK A01 T03480212  RH  045%=      5-min Rain = 0
KST2 152333Z 17019KT 35/21 A2969 RMK A01 T03470211  RH  045%=      5-min Rain = 0
KST2 152334Z 16021KT 35/21 A2969 RMK A01 T03470211  RH  045%=      5-min Rain = 0
KST2 152335Z 16019KT 35/21 A2969 RMK A01 T03470210  RH  045%=      5-min Rain = 0
KST2 152336Z 16017KT 35/21 A2969 RMK A01 T03470211  RH  045%=      5-min Rain = 0
KST2 152337Z 16018KT 35/21 A2969 RMK A01 T03460211  RH  045%=      5-min Rain = 0
KST2 152338Z 16019KT 35/21 A2969 RMK A01 T03460211  RH  045%=      5-min Rain = 0
KST2 152339Z 16019KT 35/21 A2969 RMK A01 T03450211  RH  045%=      5-min Rain = 0
KST2 152340Z 16018KT 35/21 A2969 RMK A01 T03450211  RH  046%=      5-min Rain = 0
KST2 152341Z 16017KT 34/21 A2969 RMK A01 T03440210  RH  046%=      5-min Rain = 0
KST2 152342Z 15018KT 34/21 A2969 RMK A01 T03440210  RH  046%=      5-min Rain = 0
KST2 152343Z 17016G21KT 34/21 A2969 RMK A01 T03430211  RH  046%=      5-min Rain = 0
KST2 152344Z 16016KT 34/21 A2969 RMK A01 T03430211  RH  046%=      5-min Rain = 0
KST2 152345Z 16013G18KT 34/21 A2969 RMK A01 T03420210  RH  046%=      5-min Rain = 0
KST2 152346Z 16013G19KT 34/21 A2969 RMK A01 T03410211  RH  046%=      5-min Rain = 0
KST2 152347Z 16015KT 34/21 A2969 RMK A01 T03410211  RH  047%=      5-min Rain = 0
KST2 152348Z 16014KT 34/21 A2969 RMK A01 T03400210  RH  047%=      5-min Rain = 0
KST2 152349Z 16014KT 34/21 A297 RMK A01 T03400210  RH  047%=      5-min Rain = 0
KST2 152350Z 16013KT 34/21 A297 RMK A01 T03390210  RH  047%=      5-min Rain = 0
KST2 152351Z 17014KT 34/21 A297 RMK A01 T03390210  RH  047%=      5-min Rain = 0
KST2 152352Z 17015KT 34/21 A297 RMK A01 T03390209  RH  047%=      5-min Rain = 0
KST2 152353Z 17015KT 34/21 A297 RMK A01 T03390210  RH  047%=      5-min Rain = 0
KST2 152354Z 17015KT 34/21 A297 RMK A01 T03390210  RH  047%=      5-min Rain = 0
KST2 152355Z 17017KT 34/21 A297 RMK A01 T03390209  RH  047%=      5-min Rain = 0
KST2 152356Z 17014KT 34/21 A297 RMK A01 T03380209  RH  047%=      5-min Rain = 0
KST2 152357Z 17015KT 34/21 A297 RMK A01 T03390209  RH  047%=      5-min Rain = 0
KST2 152358Z 16013KT 34/21 A297 RMK A01 T03380209  RH  047%=      5-min Rain = 0
KST2 152359Z 17016G21KT 34/21 A297 RMK A01 T03380209  RH  047%=      5-min Rain = 0
KST2 160000Z 16020KT 34/21 A297 RMK A01 T03370209  RH  047%=      5-min Rain = 0
KST2 160001Z 16017KT 34/21 A297 RMK A01 T03370209  RH  047%=      5-min Rain = 0
KST2 160002Z 17015KT 34/21 A297 RMK A01 T03370209  RH  047%=      5-min Rain = 0
KST2 160003Z 16012G17KT 34/21 A297 RMK A01 T03360209  RH  047%=      5-min Rain = 0
KST2 160004Z 16017KT 34/21 A297 RMK A01 T03360209  RH  047%=      5-min Rain = 0
KST2 160005Z 16015KT 34/21 A297 RMK A01 T03360209  RH  047%=      5-min Rain = 0
KST2 160006Z 16015KT 34/21 A297 RMK A01 T03350209  RH  048%=      5-min Rain = 0
KST2 160007Z 16015KT 34/21 A297 RMK A01 T03350209  RH  048%=      5-min Rain = 0
KST2 160008Z 16015KT 34/21 A297 RMK A01 T03350209  RH  048%=      5-min Rain = 0
KST2 160009Z 16015KT 34/21 A297 RMK A01 T03350209  RH  048%=      5-min Rain = 0
KST2 160010Z 16015KT 33/21 A297 RMK A01 T03340209  RH  048%=      5-min Rain = 0
KST2 160011Z 16014KT 33/21 A297 RMK A01 T03340209  RH  048%=      5-min Rain = 0
KST2 160012Z 16014KT 33/21 A2971 RMK A01 T03340209  RH  048%=      5-min Rain = 0
KST2 160013Z 16016KT 33/21 A2971 RMK A01 T03340209  RH  048%=      5-min Rain = 0
KST2 160014Z 16013KT 33/21 A2971 RMK A01 T03340209  RH  048%=      5-min Rain = 0
KST2 160015Z 16011KT 33/21 A2971 RMK A01 T03340209  RH  048%=      5-min Rain = 0
KST2 160016Z 16014KT 33/21 A2971 RMK A01 T03340210  RH  048%=      5-min Rain = 0
KST2 160017Z 16014KT 33/21 A2971 RMK A01 T03330210  RH  048%=      5-min Rain = 0
KST2 160018Z 16014KT 33/21 A2971 RMK A01 T03330209  RH  048%=      5-min Rain = 0
KST2 160019Z 16013KT 33/21 A2971 RMK A01 T03330209  RH  049%=      5-min Rain = 0
KST2 160020Z 16015KT 33/21 A2971 RMK A01 T03320209  RH  049%=      5-min Rain = 0
KST2 160021Z 16013KT 33/21 A2971 RMK A01 T03320209  RH  049%=      5-min Rain = 0
KST2 160022Z 17015KT 33/21 A2972 RMK A01 T03320210  RH  049%=      5-min Rain = 0
KST2 160023Z 16013KT 33/21 A2972 RMK A01 T03320210  RH  049%=      5-min Rain = 0
KST2 160024Z 16014KT 33/21 A2972 RMK A01 T03310210  RH  049%=      5-min Rain = 0
KST2 160025Z 16014KT 33/21 A2972 RMK A01 T03320210  RH  049%=      5-min Rain = 0
KST2 160026Z 16012KT 33/21 A2972 RMK A01 T03310210  RH  049%=      5-min Rain = 0
KST2 160027Z 17013KT 33/21 A2972 RMK A01 T03310210  RH  049%=      5-min Rain = 0
KST2 160028Z 16011KT 33/21 A2972 RMK A01 T03310210  RH  049%=      5-min Rain = 0
KST2 160029Z 16012KT 33/21 A2972 RMK A01 T03300210  RH  049%=      5-min Rain = 0
KST2 160030Z 16013KT 33/21 A2972 RMK A01 T03300210  RH  049%=      5-min Rain = 0
KST2 160031Z 17011KT 33/21 A2972 RMK A01 T03300210  RH  049%=      5-min Rain = 0
KST2 160032Z 16010KT 33/21 A2972 RMK A01 T03300210  RH  050%=      5-min Rain = 0
KST2 160033Z 16014KT 33/21 A2972 RMK A01 T03300210  RH  050%=      5-min Rain = 0
KST2 160034Z 16014KT 33/21 A2972 RMK A01 T03300210  RH  050%=      5-min Rain = 0
KST2 160035Z 16014KT 33/21 A2972 RMK A01 T03300210  RH  050%=      5-min Rain = 0
KST2 160036Z 16013KT 33/21 A2972 RMK A01 T03290210  RH  050%=      5-min Rain = 0
KST2 160037Z 16014KT 33/21 A2972 RMK A01 T03290210  RH  050%=      5-min Rain = 0
KST2 160038Z 16014KT 33/21 A2972 RMK A01 T03290210  RH  050%=      5-min Rain = 0
KST2 160039Z 16013KT 33/21 A2972 RMK A01 T03290210  RH  050%=      5-min Rain = 0
KST2 160040Z 16013KT 33/21 A2972 RMK A01 T03290211  RH  050%=      5-min Rain = 0
KST2 160041Z 16011KT 33/21 A2972 RMK A01 T03290210  RH  050%=      5-min Rain = 0
KST2 160042Z 16012KT 33/21 A2972 RMK A01 T03280210  RH  050%=      5-min Rain = 0
KST2 160043Z 16013KT 33/21 A2972 RMK A01 T03280210  RH  050%=      5-min Rain = 0
KST2 160044Z 16013KT 33/21 A2972 RMK A01 T03280210  RH  050%=      5-min Rain = 0
KST2 160045Z 17013KT 33/21 A2972 RMK A01 T03280210  RH  050%=      5-min Rain = 0
KST2 160046Z 16011KT 33/21 A2972 RMK A01 T03280210  RH  050%=      5-min Rain = 0
KST2 160047Z 16010KT 33/21 A2973 RMK A01 T03280211  RH  050%=      5-min Rain = 0
KST2 160048Z 16011KT 33/21 A2973 RMK A01 T03280211  RH  050%=      5-min Rain = 0
KST2 160049Z 17012KT 33/21 A2973 RMK A01 T03280211  RH  050%=      5-min Rain = 0
KST2 160050Z 17010KT 33/21 A2973 RMK A01 T03280211  RH  050%=      5-min Rain = 0
KST2 160051Z 16011KT 33/21 A2973 RMK A01 T03280211  RH  050%=      5-min Rain = 0
KST2 160052Z 16011KT 33/21 A2973 RMK A01 T03280212  RH  051%=      5-min Rain = 0
KST2 160053Z 16011KT 33/21 A2973 RMK A01 T03270211  RH  051%=      5-min Rain = 0
KST2 160054Z 16009KT 33/21 A2973 RMK A01 T03270212  RH  051%=      5-min Rain = 0
KST2 160055Z 16010KT 33/21 A2973 RMK A01 T03270212  RH  051%=      5-min Rain = 0
KST2 160056Z 17008KT 33/21 A2973 RMK A01 T03270212  RH  051%=      5-min Rain = 0
KST2 160057Z 16009KT 33/21 A2973 RMK A01 T03260212  RH  051%=      5-min Rain = 0
KST2 160058Z 17010KT 33/21 A2974 RMK A01 T03260212  RH  051%=      5-min Rain = 0
KST2 160059Z 17008KT 33/21 A2974 RMK A01 T03260212  RH  051%=      5-min Rain = 0
KST2 160100Z 17008KT 33/21 A2974 RMK A01 T03260212  RH  051%=      5-min Rain = 0
KST2 160101Z 17010KT 33/21 A2974 RMK A01 T03260212  RH  051%=      5-min Rain = 0
KST2 160102Z 17009KT 33/21 A2974 RMK A01 T03260213  RH  051%=      5-min Rain = 0
KST2 160103Z 17010KT 33/21 A2974 RMK A01 T03260212  RH  051%=      5-min Rain = 0
KST2 160104Z 17011KT 33/21 A2974 RMK A01 T03260212  RH  051%=      5-min Rain = 0
KST2 160105Z 16010KT 33/21 A2974 RMK A01 T03260212  RH  051%=      5-min Rain = 0
KST2 160106Z 16008KT 33/21 A2974 RMK A01 T03260212  RH  051%=      5-min Rain = 0
KST2 160107Z 16009KT 33/21 A2974 RMK A01 T03250212  RH  051%=      5-min Rain = 0
KST2 160108Z 17008KT 33/21 A2974 RMK A01 T03250212  RH  051%=      5-min Rain = 0
KST2 160109Z 16009KT 33/21 A2974 RMK A01 T03250212  RH  051%=      5-min Rain = 0
KST2 160110Z 16010KT 33/21 A2974 RMK A01 T03250212  RH  051%=      5-min Rain = 0
KST2 160111Z 17011KT 32/21 A2974 RMK A01 T03240211  RH  051%=      5-min Rain = 0
KST2 160112Z 16009KT 32/21 A2974 RMK A01 T03240211  RH  051%=      5-min Rain = 0
KST2 160113Z 17011KT 32/21 A2974 RMK A01 T03240211  RH  051%=      5-min Rain = 0
KST2 160114Z 17010KT 32/21 A2974 RMK A01 T03240211  RH  051%=      5-min Rain = 0
KST2 160115Z 16010KT 32/21 A2974 RMK A01 T03240211  RH  051%=      5-min Rain = 0
KST2 160116Z 16012KT 33/21 A2974 RMK A01 T03250211  RH  051%=      5-min Rain = 0
KST2 160117Z 16012KT 32/21 A2974 RMK A01 T03240210  RH  051%=      5-min Rain = 0
KST2 160118Z 16012KT 32/21 A2974 RMK A01 T03240210  RH  051%=      5-min Rain = 0
KST2 160119Z 16010KT 32/21 A2974 RMK A01 T03240210  RH  051%=      5-min Rain = 0
KST2 160120Z 16010KT 32/21 A2974 RMK A01 T03240210  RH  051%=      5-min Rain = 0
KST2 160121Z 16011KT 32/21 A2974 RMK A01 T03240210  RH  051%=      5-min Rain = 0
KST2 160122Z 16010KT 32/21 A2974 RMK A01 T03240209  RH  051%=      5-min Rain = 0
KST2 160123Z 16012KT 32/21 A2974 RMK A01 T03240209  RH  051%=      5-min Rain = 0
KST2 160124Z 16009KT 32/21 A2974 RMK A01 T03240209  RH  051%=      5-min Rain = 0
KST2 160125Z 16009KT 32/21 A2974 RMK A01 T03240209  RH  051%=      5-min Rain = 0
KST2 160126Z 16010KT 32/21 A2974 RMK A01 T03230209  RH  051%=      5-min Rain = 0
KST2 160127Z 16010KT 32/21 A2974 RMK A01 T03230209  RH  051%=      5-min Rain = 0
KST2 160128Z 16009KT 32/21 A2974 RMK A01 T03220208  RH  051%=      5-min Rain = 0
KST2 160129Z 15010KT 32/21 A2974 RMK A01 T03220208  RH  051%=      5-min Rain = 0
KST2 160130Z 16010KT 32/21 A2974 RMK A01 T03220208  RH  051%=      5-min Rain = 0
KST2 160131Z 16009KT 32/21 A2974 RMK A01 T03220208  RH  051%=      5-min Rain = 0
KST2 160132Z 15009KT 32/21 A2974 RMK A01 T03210208  RH  051%=      5-min Rain = 0
KST2 160133Z 16009KT 32/21 A2974 RMK A01 T03200208  RH  051%=      5-min Rain = 0
KST2 160134Z 15011KT 32/21 A2974 RMK A01 T03200208  RH  051%=      5-min Rain = 0
KST2 160135Z 16012KT 32/21 A2974 RMK A01 T03200208  RH  052%=      5-min Rain = 0
KST2 160136Z 15011KT 32/21 A2974 RMK A01 T03200208  RH  052%=      5-min Rain = 0
KST2 160137Z 16011KT 32/21 A2973 RMK A01 T03190208  RH  052%=      5-min Rain = 0
KST2 160138Z 15011KT 32/21 A2973 RMK A01 T03190207  RH  052%=      5-min Rain = 0
KST2 160139Z 16013KT 32/21 A2973 RMK A01 T03190208  RH  052%=      5-min Rain = 0
KST2 160140Z 16013KT 32/21 A2973 RMK A01 T03190207  RH  052%=      5-min Rain = 0
KST2 160141Z 15012KT 32/21 A2973 RMK A01 T03180207  RH  052%=      5-min Rain = 0
KST2 160142Z 16011KT 32/21 A2973 RMK A01 T03180207  RH  052%=      5-min Rain = 0
KST2 160143Z 16012KT 32/21 A2973 RMK A01 T03180207  RH  052%=      5-min Rain = 0
KST2 160144Z 16012KT 32/21 A2973 RMK A01 T03180207  RH  052%=      5-min Rain = 0
KST2 160145Z 16012KT 32/21 A2973 RMK A01 T03170207  RH  052%=      5-min Rain = 0
KST2 160146Z 16011KT 32/21 A2972 RMK A01 T03170207  RH  052%=      5-min Rain = 0
KST2 160147Z 16014KT 32/21 A2972 RMK A01 T03160206  RH  052%=      5-min Rain = 0
KST2 160148Z 15014KT 32/21 A2972 RMK A01 T03160206  RH  052%=      5-min Rain = 0
KST2 160149Z 16014KT 32/21 A2972 RMK A01 T03150206  RH  052%=      5-min Rain = 0
KST2 160150Z 16014KT 32/21 A2972 RMK A01 T03160206  RH  052%=      5-min Rain = 0
KST2 160151Z 16013KT 32/21 A2972 RMK A01 T03160207  RH  052%=      5-min Rain = 0
KST2 160152Z 16014KT 32/21 A2972 RMK A01 T03150206  RH  052%=      5-min Rain = 0
KST2 160153Z 16014KT 32/21 A2972 RMK A01 T03150206  RH  053%=      5-min Rain = 0
KST2 160154Z 15012KT 32/21 A2972 RMK A01 T03150206  RH  053%=      5-min Rain = 0
KST2 160155Z 15013KT 31/21 A2972 RMK A01 T03140206  RH  053%=      5-min Rain = 0
KST2 160156Z 16013KT 31/21 A2972 RMK A01 T03140206  RH  053%=      5-min Rain = 0
KST2 160157Z 16014KT 31/21 A2972 RMK A01 T03130205  RH  053%=      5-min Rain = 0
KST2 160158Z 16014KT 31/21 A2972 RMK A01 T03130205  RH  053%=      5-min Rain = 0
KST2 160159Z 16013KT 31/21 A2972 RMK A01 T03130206  RH  053%=      5-min Rain = 0
KST2 160200Z 16013KT 31/21 A2972 RMK A01 T03130206  RH  053%=      5-min Rain = 0
KST2 160201Z 16013KT 31/21 A2972 RMK A01 T03130206  RH  053%=      5-min Rain = 0
KST2 160202Z 16011KT 31/21 A2973 RMK A01 T03130206  RH  053%=      5-min Rain = 0
KST2 160203Z 16013KT 31/21 A2973 RMK A01 T03130205  RH  053%=      5-min Rain = 0
KST2 160204Z 15013KT 31/21 A2973 RMK A01 T03130206  RH  053%=      5-min Rain = 0
KST2 160205Z 16011KT 31/21 A2973 RMK A01 T03130206  RH  053%=      5-min Rain = 0
KST2 160206Z 16011KT 31/21 A2973 RMK A01 T03120205  RH  053%=      5-min Rain = 0
KST2 160207Z 15011KT 31/21 A2973 RMK A01 T03120205  RH  053%=      5-min Rain = 0
KST2 160208Z 15012KT 31/21 A2973 RMK A01 T03110205  RH  053%=      5-min Rain = 0
KST2 160209Z 16012KT 31/21 A2973 RMK A01 T03110205  RH  053%=      5-min Rain = 0
KST2 160210Z 15012KT 31/21 A2973 RMK A01 T03110205  RH  053%=      5-min Rain = 0
KST2 160211Z 16012KT 31/21 A2973 RMK A01 T03110205  RH  053%=      5-min Rain = 0
KST2 160212Z 16012KT 31/21 A2973 RMK A01 T03110205  RH  053%=      5-min Rain = 0
KST2 160213Z 15012KT 31/21 A2973 RMK A01 T03110205  RH  053%=      5-min Rain = 0
KST2 160214Z 15013KT 31/21 A2973 RMK A01 T03110205  RH  053%=      5-min Rain = 0
KST2 160215Z 16014KT 31/21 A2973 RMK A01 T03110205  RH  053%=      5-min Rain = 0
KST2 160216Z 15014KT 31/21 A2972 RMK A01 T03110205  RH  053%=      5-min Rain = 0
KST2 160217Z 15015KT 31/21 A2972 RMK A01 T03100205  RH  053%=      5-min Rain = 0
KST2 160218Z 15016KT 31/21 A2972 RMK A01 T03110205  RH  053%=      5-min Rain = 0
KST2 160219Z 15016KT 31/21 A2972 RMK A01 T03110205  RH  053%=      5-min Rain = 0
KST2 160220Z 16017KT 31/21 A2972 RMK A01 T03110205  RH  053%=      5-min Rain = 0
KST2 160221Z 16017KT 31/21 A2972 RMK A01 T03110205  RH  053%=      5-min Rain = 0
KST2 160222Z 16016KT 31/21 A2972 RMK A01 T03110205  RH  053%=      5-min Rain = 0
KST2 160223Z 16016KT 31/21 A2972 RMK A01 T03110205  RH  053%=      5-min Rain = 0
KST2 160224Z 16016KT 31/21 A2972 RMK A01 T03110205  RH  053%=      5-min Rain = 0
KST2 160225Z 16017KT 31/21 A2972 RMK A01 T03110205  RH  053%=      5-min Rain = 0
KST2 160226Z 16015KT 31/21 A2972 RMK A01 T03100205  RH  054%=      5-min Rain = 0
KST2 160227Z 16017KT 31/21 A2972 RMK A01 T03100205  RH  054%=      5-min Rain = 0
KST2 160228Z 16016KT 31/21 A2972 RMK A01 T03090205  RH  054%=      5-min Rain = 0
KST2 160229Z 16017G22KT 31/21 A2972 RMK A01 T03090205  RH  054%=      5-min Rain = 0
KST2 160230Z 16016KT 31/21 A2972 RMK A01 T03090205  RH  054%=      5-min Rain = 0
KST2 160231Z 16014KT 31/21 A2972 RMK A01 T03090205  RH  054%=      5-min Rain = 0
KST2 160232Z 16015KT 31/21 A2972 RMK A01 T03080205  RH  054%=      5-min Rain = 0
KST2 160233Z 16016KT 31/20 A2972 RMK A01 T03080204  RH  054%=      5-min Rain = 0
KST2 160234Z 16014KT 31/20 A2972 RMK A01 T03070204  RH  054%=      5-min Rain = 0
KST2 160235Z 16015KT 31/20 A2972 RMK A01 T03070204  RH  054%=      5-min Rain = 0
KST2 160236Z 17014KT 31/20 A2972 RMK A01 T03070204  RH  054%=      5-min Rain = 0
KST2 160237Z 16013KT 31/20 A2972 RMK A01 T03060204  RH  054%=      5-min Rain = 0
KST2 160238Z 16013KT 31/20 A2972 RMK A01 T03060204  RH  054%=      5-min Rain = 0
KST2 160239Z 17012KT 31/20 A2973 RMK A01 T03050204  RH  055%=      5-min Rain = 0
KST2 160240Z 17013KT 31/20 A2973 RMK A01 T03050204  RH  055%=      5-min Rain = 0
KST2 160241Z 17012KT 31/20 A2973 RMK A01 T03050204  RH  055%=      5-min Rain = 0
KST2 160242Z 17013KT 30/20 A2973 RMK A01 T03040203  RH  055%=      5-min Rain = 0
KST2 160243Z 17014KT 30/20 A2973 RMK A01 T03040203  RH  055%=      5-min Rain = 0
KST2 160244Z 16013KT 30/20 A2973 RMK A01 T03040203  RH  055%=      5-min Rain = 0
KST2 160245Z 17013KT 30/20 A2973 RMK A01 T03040204  RH  055%=      5-min Rain = 0
KST2 160246Z 17014KT 30/20 A2973 RMK A01 T03040203  RH  055%=      5-min Rain = 0
KST2 160247Z 17015KT 31/20 A2973 RMK A01 T03050204  RH  055%=      5-min Rain = 0
KST2 160248Z 17014KT 31/20 A2973 RMK A01 T03050204  RH  055%=      5-min Rain = 0
KST2 160249Z 17016KT 31/20 A2973 RMK A01 T03060204  RH  055%=      5-min Rain = 0
KST2 160250Z 16016KT 31/20 A2973 RMK A01 T03060204  RH  054%=      5-min Rain = 0
KST2 160251Z 17015KT 31/20 A2972 RMK A01 T03070204  RH  054%=      5-min Rain = 0
KST2 160252Z 17016KT 31/20 A2972 RMK A01 T03060204  RH  054%=      5-min Rain = 0
KST2 160253Z 16017KT 31/20 A2972 RMK A01 T03060204  RH  054%=      5-min Rain = 0
KST2 160254Z 17016KT 31/20 A2972 RMK A01 T03070204  RH  054%=      5-min Rain = 0
KST2 160255Z 17017KT 31/20 A2972 RMK A01 T03070204  RH  054%=      5-min Rain = 0
KST2 160256Z 17018KT 31/20 A2972 RMK A01 T03070204  RH  054%=      5-min Rain = 0
KST2 160257Z 17016KT 31/20 A2972 RMK A01 T03070204  RH  054%=      5-min Rain = 0
KST2 160258Z 17016KT 31/20 A2972 RMK A01 T03070204  RH  054%=      5-min Rain = 0
KST2 160259Z 17018KT 31/20 A2972 RMK A01 T03070204  RH  054%=      5-min Rain = 0
KST2 160300Z 17018KT 31/20 A2972 RMK A01 T03070203  RH  054%=      5-min Rain = 0
KST2 160301Z 18019G27KT 31/20 A2972 RMK A01 T03070203  RH  054%=      5-min Rain = 0
KST2 160302Z 18018KT 31/20 A2972 RMK A01 T03080203  RH  054%=      5-min Rain = 0
KST2 160303Z 18018KT 31/20 A2972 RMK A01 T03080203  RH  054%=      5-min Rain = 0
KST2 160304Z 18020KT 31/20 A2972 RMK A01 T03080203  RH  054%=      5-min Rain = 0
KST2 160305Z 18019KT 31/20 A2972 RMK A01 T03080203  RH  053%=      5-min Rain = 0
KST2 160306Z 18016KT 31/20 A2973 RMK A01 T03090203  RH  053%=      5-min Rain = 0
KST2 160307Z 18019KT 31/20 A2973 RMK A01 T03090203  RH  053%=      5-min Rain = 0
KST2 160308Z 17020KT 31/20 A2973 RMK A01 T03090203  RH  053%=      5-min Rain = 0
KST2 160309Z 18019KT 31/20 A2973 RMK A01 T03090203  RH  053%=      5-min Rain = 0
KST2 160310Z 18021KT 31/20 A2973 RMK A01 T03090203  RH  053%=      5-min Rain = 0
KST2 160311Z 18022KT 31/20 A2973 RMK A01 T03090202  RH  053%=      5-min Rain = 0
KST2 160312Z 18018KT 31/20 A2973 RMK A01 T03090202  RH  053%=      5-min Rain = 0
KST2 160313Z 18019KT 31/20 A2973 RMK A01 T03090202  RH  053%=      5-min Rain = 0
KST2 160314Z 18018G23KT 31/20 A2973 RMK A01 T03090202  RH  053%=      5-min Rain = 0
KST2 160315Z 18018KT 31/20 A2974 RMK A01 T03090202  RH  053%=      5-min Rain = 0
KST2 160316Z 17018KT 31/20 A2974 RMK A01 T03090202  RH  053%=      5-min Rain = 0
KST2 160317Z 18020KT 31/20 A2974 RMK A01 T03080202  RH  053%=      5-min Rain = 0
KST2 160318Z 18019KT 31/20 A2974 RMK A01 T03080201  RH  053%=      5-min Rain = 0
KST2 160319Z 18020KT 31/20 A2974 RMK A01 T03080201  RH  053%=      5-min Rain = 0
KST2 160320Z 18018G23KT 31/20 A2974 RMK A01 T03080201  RH  053%=      5-min Rain = 0
KST2 160321Z 18016KT 31/20 A2974 RMK A01 T03080201  RH  053%=      5-min Rain = 0
KST2 160322Z 18019KT 31/20 A2974 RMK A01 T03080201  RH  053%=      5-min Rain = 0
KST2 160323Z 17018KT 31/20 A2974 RMK A01 T03080201  RH  053%=      5-min Rain = 0
KST2 160324Z 18019KT 31/20 A2974 RMK A01 T03080200  RH  053%=      5-min Rain = 0
KST2 160325Z 18017G23KT 31/20 A2974 RMK A01 T03080200  RH  053%=      5-min Rain = 0
KST2 160326Z 18018KT 31/20 A2974 RMK A01 T03080200  RH  053%=      5-min Rain = 0
KST2 160327Z 18018G23KT 31/20 A2974 RMK A01 T03080200  RH  053%=      5-min Rain = 0
KST2 160328Z 17015KT 31/20 A2974 RMK A01 T03070200  RH  053%=      5-min Rain = 0
KST2 160329Z 17021KT 31/20 A2973 RMK A01 T03070200  RH  053%=      5-min Rain = 0
KST2 160330Z 17018KT 31/20 A2973 RMK A01 T03070200  RH  053%=      5-min Rain = 0
KST2 160331Z 17017G23KT 31/20 A2973 RMK A01 T03070200  RH  053%=      5-min Rain = 0
KST2 160332Z 17019KT 31/20 A2973 RMK A01 T03070200  RH  053%=      5-min Rain = 0
KST2 160333Z 17018KT 31/20 A2973 RMK A01 T03060199  RH  053%=      5-min Rain = 0
KST2 160334Z 18019KT 31/20 A2973 RMK A01 T03060199  RH  053%=      5-min Rain = 0
KST2 160335Z 17017KT 31/20 A2974 RMK A01 T03070199  RH  053%=      5-min Rain = 0
KST2 160336Z 18018KT 31/20 A2974 RMK A01 T03060199  RH  053%=      5-min Rain = 0
KST2 160337Z 18017KT 31/20 A2974 RMK A01 T03060199  RH  053%=      5-min Rain = 0
KST2 160338Z 18017KT 31/20 A2975 RMK A01 T03060199  RH  053%=      5-min Rain = 0
KST2 160339Z 18014KT 31/20 A2975 RMK A01 T03060200  RH  053%=      5-min Rain = 0
KST2 160340Z 18015KT 31/20 A2975 RMK A01 T03060200  RH  053%=      5-min Rain = 0
KST2 160341Z 18016G21KT 31/20 A2975 RMK A01 T03060200  RH  053%=      5-min Rain = 0
KST2 160342Z 17013KT 31/20 A2975 RMK A01 T03050199  RH  053%=      5-min Rain = 0
KST2 160343Z 18015KT 31/20 A2975 RMK A01 T03050199  RH  053%=      5-min Rain = 0
KST2 160344Z 18016KT 31/20 A2975 RMK A01 T03050199  RH  053%=      5-min Rain = 0
KST2 160345Z 18019KT 31/20 A2975 RMK A01 T03050199  RH  053%=      5-min Rain = 0
KST2 160346Z 18017KT 31/20 A2975 RMK A01 T03050199  RH  053%=      5-min Rain = 0
KST2 160347Z 18017KT 31/20 A2975 RMK A01 T03050199  RH  053%=      5-min Rain = 0
KST2 160348Z 18014KT 31/20 A2975 RMK A01 T03050199  RH  053%=      5-min Rain = 0
KST2 160349Z 18016KT 31/20 A2975 RMK A01 T03050199  RH  053%=      5-min Rain = 0
KST2 160350Z 18015KT 31/20 A2975 RMK A01 T03050199  RH  053%=      5-min Rain = 0
KST2 160351Z 18016G21KT 31/20 A2975 RMK A01 T03050199  RH  053%=      5-min Rain = 0
KST2 160352Z 18017KT 31/20 A2975 RMK A01 T03050199  RH  053%=      5-min Rain = 0
KST2 160353Z 18016KT 31/20 A2976 RMK A01 T03050199  RH  053%=      5-min Rain = 0
KST2 160354Z 18014G20KT 31/20 A2976 RMK A01 T03050199  RH  053%=      5-min Rain = 0
KST2 160355Z 18018G24KT 31/20 A2976 RMK A01 T03050199  RH  053%=      5-min Rain = 0
KST2 160356Z 18016KT 31/20 A2976 RMK A01 T03050199  RH  053%=      5-min Rain = 0
KST2 160357Z 18014KT 31/20 A2976 RMK A01 T03050199  RH  053%=      5-min Rain = 0
KST2 160358Z 18012KT 31/20 A2976 RMK A01 T03050199  RH  053%=      5-min Rain = 0
KST2 160359Z 18012KT 31/20 A2976 RMK A01 T03050199  RH  053%=      5-min Rain = 0
KST2 160400Z 19013KT 30/20 A2977 RMK A01 T03040199  RH  053%=      5-min Rain = 0
KST2 160401Z 19012KT 30/20 A2977 RMK A01 T03040199  RH  053%=      5-min Rain = 0
KST2 160402Z 19011KT 30/20 A2977 RMK A01 T03040199  RH  053%=      5-min Rain = 0
KST2 160403Z 20010KT 30/20 A2978 RMK A01 T03040199  RH  053%=      5-min Rain = 0
KST2 160404Z 23008KT 30/20 A298 RMK A01 T03040199  RH  053%=      5-min Rain = 0
KST2 160405Z 28014G24KT 30/20 A2982 RMK A01 T03040199  RH  053%=      5-min Rain = 0
KST2 160406Z 31028G35KT 30/19 A2982 RMK A01 T03020193  RH  052%=      5-min Rain = 0
KST2 160407Z 34030G35KT 29/18 A2983 RMK A01 T02870176  RH  051%=      5-min Rain = 0
KST2 160408Z 33026G31KT 27/17 A2983 RMK A01 T02700166  RH  053%=      5-min Rain = 0
KST2 160409Z 35024KT 26/16 A2983 RMK A01 T02590161  RH  055%=      5-min Rain = 0
KST2 160410Z 34027G32KT 25/16 A2983 RMK A01 T02520158  RH  056%=      5-min Rain = 0
KST2 160411Z 33025KT 25/16 A2983 RMK A01 T02480156  RH  057%=      5-min Rain = 0
KST2 160412Z 33023KT 25/16 A2983 RMK A01 T02450155  RH  057%=      5-min Rain = 0
KST2 160413Z 32028KT 24/16 A2983 RMK A01 T02440156  RH  058%=      5-min Rain = 0
KST2 160414Z 33023KT 24/16 A2983 RMK A01 T02430155  RH  058%=      5-min Rain = 0
KST2 160415Z 34020KT 24/16 A2983 RMK A01 T02420156  RH  058%=      5-min Rain = 0
KST2 160416Z 34022KT 24/16 A2983 RMK A01 T02420156  RH  059%=      5-min Rain = 0
KST2 160417Z 35023KT 24/16 A2983 RMK A01 T02410157  RH  059%=      5-min Rain = 0
KST2 160418Z 35031G36KT 24/16 A2983 RMK A01 T02410157  RH  059%=      5-min Rain = 0
KST2 160419Z 35028G36KT 24/16 A2983 RMK A01 T02420158  RH  060%=      5-min Rain = 0
KST2 160420Z 35031G36KT 24/16 A2983 RMK A01 T02420158  RH  059%=      5-min Rain = 0
KST2 160421Z 35035G43KT 24/16 A2982 RMK A01 T02410157  RH  059%=      5-min Rain = 0
KST2 160422Z 34036G43KT 24/16 A2983 RMK A01 T02390155  RH  059%=      5-min Rain = 0
KST2 160423Z 33027G33KT 24/15 A2985 RMK A01 T02360153  RH  059%=      5-min Rain = 0
KST2 160424Z 33026KT 23/15 A2985 RMK A01 T02330152  RH  060%=      5-min Rain = 0
KST2 160425Z 33022KT 23/15 A2985 RMK A01 T02310151  RH  061%=      5-min Rain = 0
KST2 160426Z 34020KT 23/15 A2985 RMK A01 T02300151  RH  061%=      5-min Rain = 0
KST2 160427Z 35023G28KT 23/15 A2985 RMK A01 T02290151  RH  061%=      5-min Rain = 0
KST2 160428Z 35026KT 23/15 A2984 RMK A01 T02290151  RH  062%=      5-min Rain = 0
KST2 160429Z 35023G28KT 23/15 A2984 RMK A01 T02280152  RH  062%=      5-min Rain = 0
KST2 160430Z 36021KT 23/15 A2984 RMK A01 T02280152  RH  062%=      5-min Rain = 0
KST2 160431Z 35020KT 23/15 A2983 RMK A01 T02270152  RH  063%=      5-min Rain = 0
KST2 160432Z 36020KT 23/15 A2983 RMK A01 T02260153  RH  063%=      5-min Rain = 0
KST2 160433Z 35018KT 23/15 A2983 RMK A01 T02260153  RH  063%=      5-min Rain = 0
KST2 160434Z 35018KT 23/15 A2983 RMK A01 T02250153  RH  064%=      5-min Rain = 0
KST2 160435Z 00016KT 22/15 A2982 RMK A01 T02240153  RH  064%=      5-min Rain = 0
KST2 160436Z 36015KT 22/15 A2982 RMK A01 T02240154  RH  065%=      5-min Rain = 0
KST2 160437Z 01016KT 22/15 A2982 RMK A01 T02220153  RH  065%=      5-min Rain = 0
KST2 160438Z 00012KT 22/15 A2982 RMK A01 T02220154  RH  065%=      5-min Rain = 0
KST2 160439Z 36009KT 22/15 A2982 RMK A01 T02210154  RH  066%=      5-min Rain = 0
KST2 160440Z 35011KT 22/15 A2982 RMK A01 T02210154  RH  066%=      5-min Rain = 0
KST2 160441Z 35013KT 22/16 A2981 RMK A01 T02210155  RH  066%=      5-min Rain = 0
KST2 160442Z 35016KT 22/16 A2981 RMK A01 T02210156  RH  066%=      5-min Rain = 0
KST2 160443Z 35017KT 22/16 A2981 RMK A01 T02220157  RH  066%=      5-min Rain = 0
KST2 160444Z 36015KT 22/16 A2981 RMK A01 T02220157  RH  066%=      5-min Rain = 0
KST2 160445Z 36013KT 22/16 A2981 RMK A01 T02220157  RH  067%=      5-min Rain = 0
KST2 160446Z 00014KT 22/16 A2981 RMK A01 T02210158  RH  067%=      5-min Rain = 0
KST2 160447Z 36015KT 22/16 A2982 RMK A01 T02210158  RH  067%=      5-min Rain = 0
KST2 160448Z 01015KT 22/16 A2982 RMK A01 T02200158  RH  068%=      5-min Rain = 0
KST2 160449Z 01013KT 22/16 A2982 RMK A01 T02200159  RH  068%=      5-min Rain = 0
KST2 160450Z 01013KT 22/16 A2982 RMK A01 T02200159  RH  068%=      5-min Rain = 0
KST2 160451Z 01014KT 22/16 A2982 RMK A01 T02200159  RH  068%=      5-min Rain = 0
KST2 160452Z 02012KT 22/16 A2982 RMK A01 T02190159  RH  069%=      5-min Rain = 0
KST2 160453Z 02012KT 22/16 A2982 RMK A01 T02180159  RH  069%=      5-min Rain = 0
KST2 160454Z 01013KT 22/16 A2982 RMK A01 T02180160  RH  069%=      5-min Rain = 0
KST2 160455Z 01012KT 22/16 A2982 RMK A01 T02180160  RH  070%=      5-min Rain = 0
KST2 160456Z 02012KT 22/16 A2982 RMK A01 T02170160  RH  070%=      5-min Rain = 0
KST2 160457Z 02011KT 22/16 A2982 RMK A01 T02160161  RH  071%=      5-min Rain = 0
KST2 160458Z 02007KT 22/16 A2982 RMK A01 T02160161  RH  071%=      5-min Rain = 0
KST2 160459Z 03007KT 22/16 A2982 RMK A01 T02160162  RH  071%=      5-min Rain = 0

Page generated in 0.0339 seconds.